<?xml version="1.0" encoding="UTF-8" standalone="no" ?>
<gpx xmlns="http://www.topografix.com/GPX/1/1" xmlns:xsi="http://www.w3.org/2001/XMLSchema-instance" xsi:schemaLocation="http://www.topografix.com/GPX/1/1 http://www.topografix.com/GPX/1/1/gpx.xsd" version="1.1" creator="VisuGPX - https://www.visugpx.com">
  <metadata>
    <name>Le PUECH depuis le col du Portet d'Aspet 10 avril 2016</name>
    <desc><![CDATA[Rando sans difficulté technique.
10 km pour 700 m de D  ]]></desc>
  </metadata>
  <trk>
    <name><![CDATA[PUECH depuis PORTET D'ASPET 10042016]]></name>
    <trkseg>
      <trkpt lat="42.94492" lon="0.85463">
        <ele>1115.27</ele>
        <time>2016-04-10T07:46:08Z</time>
      </trkpt>
      <trkpt lat="42.94485" lon="0.85464">
        <ele>1072.97</ele>
        <time>2016-04-10T07:52:14Z</time>
      </trkpt>
      <trkpt lat="42.94488" lon="0.85456">
        <ele>1073.45</ele>
        <time>2016-04-10T07:52:54Z</time>
      </trkpt>
      <trkpt lat="42.94489" lon="0.85459">
        <ele>1072.97</ele>
        <time>2016-04-10T07:54:19Z</time>
      </trkpt>
      <trkpt lat="42.94491" lon="0.85448">
        <ele>1073.45</ele>
        <time>2016-04-10T07:56:14Z</time>
      </trkpt>
      <trkpt lat="42.94492" lon="0.85433">
        <ele>1075.37</ele>
        <time>2016-04-10T07:56:27Z</time>
      </trkpt>
      <trkpt lat="42.94488" lon="0.85415">
        <ele>1075.85</ele>
        <time>2016-04-10T07:56:40Z</time>
      </trkpt>
      <trkpt lat="42.94481" lon="0.85402">
        <ele>1077.78</ele>
        <time>2016-04-10T07:56:52Z</time>
      </trkpt>
      <trkpt lat="42.94472" lon="0.85407">
        <ele>1078.74</ele>
        <time>2016-04-10T07:57:03Z</time>
      </trkpt>
      <trkpt lat="42.94464" lon="0.85418">
        <ele>1078.26</ele>
        <time>2016-04-10T07:57:14Z</time>
      </trkpt>
      <trkpt lat="42.94455" lon="0.85431">
        <ele>1079.22</ele>
        <time>2016-04-10T07:57:25Z</time>
      </trkpt>
      <trkpt lat="42.94447" lon="0.85441">
        <ele>1080.18</ele>
        <time>2016-04-10T07:57:35Z</time>
      </trkpt>
      <trkpt lat="42.94439" lon="0.85452">
        <ele>1081.62</ele>
        <time>2016-04-10T07:57:47Z</time>
      </trkpt>
      <trkpt lat="42.94429" lon="0.85462">
        <ele>1083.06</ele>
        <time>2016-04-10T07:57:59Z</time>
      </trkpt>
      <trkpt lat="42.9442" lon="0.85471">
        <ele>1082.58</ele>
        <time>2016-04-10T07:58:11Z</time>
      </trkpt>
      <trkpt lat="42.94409" lon="0.85479">
        <ele>1083.54</ele>
        <time>2016-04-10T07:58:22Z</time>
      </trkpt>
      <trkpt lat="42.94399" lon="0.85488">
        <ele>1084.5</ele>
        <time>2016-04-10T07:58:33Z</time>
      </trkpt>
      <trkpt lat="42.94385" lon="0.85493">
        <ele>1084.5</ele>
        <time>2016-04-10T07:58:44Z</time>
      </trkpt>
      <trkpt lat="42.94371" lon="0.8549">
        <ele>1085.47</ele>
        <time>2016-04-10T07:58:55Z</time>
      </trkpt>
      <trkpt lat="42.9436" lon="0.85478">
        <ele>1084.99</ele>
        <time>2016-04-10T07:59:07Z</time>
      </trkpt>
      <trkpt lat="42.94352" lon="0.85464">
        <ele>1084.02</ele>
        <time>2016-04-10T07:59:19Z</time>
      </trkpt>
      <trkpt lat="42.94342" lon="0.85458">
        <ele>1084.5</ele>
        <time>2016-04-10T07:59:29Z</time>
      </trkpt>
      <trkpt lat="42.94331" lon="0.85455">
        <ele>1082.58</ele>
        <time>2016-04-10T07:59:42Z</time>
      </trkpt>
      <trkpt lat="42.94318" lon="0.8545">
        <ele>1082.1</ele>
        <time>2016-04-10T07:59:54Z</time>
      </trkpt>
      <trkpt lat="42.94303" lon="0.85443">
        <ele>1084.02</ele>
        <time>2016-04-10T08:00:14Z</time>
      </trkpt>
      <trkpt lat="42.94288" lon="0.85437">
        <ele>1088.35</ele>
        <time>2016-04-10T08:00:30Z</time>
      </trkpt>
      <trkpt lat="42.94273" lon="0.8543">
        <ele>1090.27</ele>
        <time>2016-04-10T08:00:44Z</time>
      </trkpt>
      <trkpt lat="42.94261" lon="0.85418">
        <ele>1092.68</ele>
        <time>2016-04-10T08:01:03Z</time>
      </trkpt>
      <trkpt lat="42.94255" lon="0.85399">
        <ele>1095.08</ele>
        <time>2016-04-10T08:01:21Z</time>
      </trkpt>
      <trkpt lat="42.94245" lon="0.85368">
        <ele>1094.12</ele>
        <time>2016-04-10T08:01:41Z</time>
      </trkpt>
      <trkpt lat="42.9424" lon="0.85339">
        <ele>1091.23</ele>
        <time>2016-04-10T08:02:01Z</time>
      </trkpt>
      <trkpt lat="42.94226" lon="0.85322">
        <ele>1090.27</ele>
        <time>2016-04-10T08:02:21Z</time>
      </trkpt>
      <trkpt lat="42.9421" lon="0.85299">
        <ele>1091.71</ele>
        <time>2016-04-10T08:02:45Z</time>
      </trkpt>
      <trkpt lat="42.94194" lon="0.8528">
        <ele>1091.71</ele>
        <time>2016-04-10T08:03:07Z</time>
      </trkpt>
      <trkpt lat="42.94187" lon="0.85266">
        <ele>1090.27</ele>
        <time>2016-04-10T08:03:38Z</time>
      </trkpt>
      <trkpt lat="42.94174" lon="0.85257">
        <ele>1091.23</ele>
        <time>2016-04-10T08:03:54Z</time>
      </trkpt>
      <trkpt lat="42.94161" lon="0.85249">
        <ele>1091.71</ele>
        <time>2016-04-10T08:04:10Z</time>
      </trkpt>
      <trkpt lat="42.94145" lon="0.85239">
        <ele>1092.2</ele>
        <time>2016-04-10T08:04:27Z</time>
      </trkpt>
      <trkpt lat="42.9413" lon="0.85232">
        <ele>1091.23</ele>
        <time>2016-04-10T08:04:47Z</time>
      </trkpt>
      <trkpt lat="42.94108" lon="0.85219">
        <ele>1091.71</ele>
        <time>2016-04-10T08:05:08Z</time>
      </trkpt>
      <trkpt lat="42.94095" lon="0.85212">
        <ele>1097</ele>
        <time>2016-04-10T08:05:26Z</time>
      </trkpt>
      <trkpt lat="42.9408" lon="0.85213">
        <ele>1098.44</ele>
        <time>2016-04-10T08:05:44Z</time>
      </trkpt>
      <trkpt lat="42.94065" lon="0.85217">
        <ele>1099.4</ele>
        <time>2016-04-10T08:05:57Z</time>
      </trkpt>
      <trkpt lat="42.94049" lon="0.85218">
        <ele>1098.44</ele>
        <time>2016-04-10T08:06:13Z</time>
      </trkpt>
      <trkpt lat="42.94034" lon="0.85209">
        <ele>1102.29</ele>
        <time>2016-04-10T08:06:35Z</time>
      </trkpt>
      <trkpt lat="42.94021" lon="0.85197">
        <ele>1102.29</ele>
        <time>2016-04-10T08:06:49Z</time>
      </trkpt>
      <trkpt lat="42.94012" lon="0.85196">
        <ele>1100.85</ele>
        <time>2016-04-10T08:06:59Z</time>
      </trkpt>
      <trkpt lat="42.93999" lon="0.852">
        <ele>1100.37</ele>
        <time>2016-04-10T08:07:12Z</time>
      </trkpt>
      <trkpt lat="42.93984" lon="0.85203">
        <ele>1101.33</ele>
        <time>2016-04-10T08:07:25Z</time>
      </trkpt>
      <trkpt lat="42.93972" lon="0.85205">
        <ele>1103.25</ele>
        <time>2016-04-10T08:07:36Z</time>
      </trkpt>
      <trkpt lat="42.93963" lon="0.85206">
        <ele>1104.69</ele>
        <time>2016-04-10T08:07:47Z</time>
      </trkpt>
      <trkpt lat="42.93952" lon="0.85206">
        <ele>1106.13</ele>
        <time>2016-04-10T08:07:58Z</time>
      </trkpt>
      <trkpt lat="42.93941" lon="0.85203">
        <ele>1107.58</ele>
        <time>2016-04-10T08:08:08Z</time>
      </trkpt>
      <trkpt lat="42.93933" lon="0.85198">
        <ele>1108.06</ele>
        <time>2016-04-10T08:08:18Z</time>
      </trkpt>
      <trkpt lat="42.93923" lon="0.85189">
        <ele>1112.38</ele>
        <time>2016-04-10T08:08:31Z</time>
      </trkpt>
      <trkpt lat="42.93913" lon="0.85184">
        <ele>1114.79</ele>
        <time>2016-04-10T08:08:48Z</time>
      </trkpt>
      <trkpt lat="42.93899" lon="0.85179">
        <ele>1119.11</ele>
        <time>2016-04-10T08:09:05Z</time>
      </trkpt>
      <trkpt lat="42.93886" lon="0.85168">
        <ele>1122.96</ele>
        <time>2016-04-10T08:09:26Z</time>
      </trkpt>
      <trkpt lat="42.93868" lon="0.85148">
        <ele>1125.84</ele>
        <time>2016-04-10T08:09:50Z</time>
      </trkpt>
      <trkpt lat="42.93854" lon="0.8513">
        <ele>1127.76</ele>
        <time>2016-04-10T08:10:19Z</time>
      </trkpt>
      <trkpt lat="42.93841" lon="0.85119">
        <ele>1130.17</ele>
        <time>2016-04-10T08:10:35Z</time>
      </trkpt>
      <trkpt lat="42.93831" lon="0.85107">
        <ele>1134.49</ele>
        <time>2016-04-10T08:10:49Z</time>
      </trkpt>
      <trkpt lat="42.93819" lon="0.85091">
        <ele>1138.34</ele>
        <time>2016-04-10T08:11:16Z</time>
      </trkpt>
      <trkpt lat="42.93803" lon="0.85076">
        <ele>1139.3</ele>
        <time>2016-04-10T08:11:41Z</time>
      </trkpt>
      <trkpt lat="42.93789" lon="0.85072">
        <ele>1139.3</ele>
        <time>2016-04-10T08:11:59Z</time>
      </trkpt>
      <trkpt lat="42.93772" lon="0.85069">
        <ele>1141.7</ele>
        <time>2016-04-10T08:12:20Z</time>
      </trkpt>
      <trkpt lat="42.93759" lon="0.8506">
        <ele>1143.63</ele>
        <time>2016-04-10T08:12:50Z</time>
      </trkpt>
      <trkpt lat="42.93747" lon="0.85052">
        <ele>1146.03</ele>
        <time>2016-04-10T08:13:04Z</time>
      </trkpt>
      <trkpt lat="42.93738" lon="0.85047">
        <ele>1146.99</ele>
        <time>2016-04-10T08:13:20Z</time>
      </trkpt>
      <trkpt lat="42.93721" lon="0.85037">
        <ele>1150.35</ele>
        <time>2016-04-10T08:13:41Z</time>
      </trkpt>
      <trkpt lat="42.93713" lon="0.85031">
        <ele>1154.2</ele>
        <time>2016-04-10T08:17:08Z</time>
      </trkpt>
      <trkpt lat="42.93716" lon="0.85022">
        <ele>1157.08</ele>
        <time>2016-04-10T08:46:14Z</time>
      </trkpt>
      <trkpt lat="42.93706" lon="0.85011">
        <ele>1158.53</ele>
        <time>2016-04-10T08:46:30Z</time>
      </trkpt>
      <trkpt lat="42.937" lon="0.84994">
        <ele>1162.85</ele>
        <time>2016-04-10T08:46:50Z</time>
      </trkpt>
      <trkpt lat="42.93695" lon="0.84989">
        <ele>1165.26</ele>
        <time>2016-04-10T08:47:12Z</time>
      </trkpt>
      <trkpt lat="42.93676" lon="0.84989">
        <ele>1171.5</ele>
        <time>2016-04-10T08:47:44Z</time>
      </trkpt>
      <trkpt lat="42.93646" lon="0.8498">
        <ele>1177.75</ele>
        <time>2016-04-10T08:48:31Z</time>
      </trkpt>
      <trkpt lat="42.93628" lon="0.84972">
        <ele>1184</ele>
        <time>2016-04-10T08:49:03Z</time>
      </trkpt>
      <trkpt lat="42.93605" lon="0.84956">
        <ele>1188.33</ele>
        <time>2016-04-10T08:49:39Z</time>
      </trkpt>
      <trkpt lat="42.93596" lon="0.8494">
        <ele>1191.21</ele>
        <time>2016-04-10T08:49:56Z</time>
      </trkpt>
      <trkpt lat="42.93589" lon="0.84926">
        <ele>1192.65</ele>
        <time>2016-04-10T08:50:11Z</time>
      </trkpt>
      <trkpt lat="42.93584" lon="0.84914">
        <ele>1193.61</ele>
        <time>2016-04-10T08:50:24Z</time>
      </trkpt>
      <trkpt lat="42.9358" lon="0.84894">
        <ele>1194.58</ele>
        <time>2016-04-10T08:50:41Z</time>
      </trkpt>
      <trkpt lat="42.93566" lon="0.84877">
        <ele>1196.02</ele>
        <time>2016-04-10T08:51:02Z</time>
      </trkpt>
      <trkpt lat="42.93558" lon="0.84852">
        <ele>1197.94</ele>
        <time>2016-04-10T08:51:25Z</time>
      </trkpt>
      <trkpt lat="42.93549" lon="0.84835">
        <ele>1201.79</ele>
        <time>2016-04-10T08:51:47Z</time>
      </trkpt>
      <trkpt lat="42.93541" lon="0.84816">
        <ele>1202.75</ele>
        <time>2016-04-10T08:52:05Z</time>
      </trkpt>
      <trkpt lat="42.93536" lon="0.84796">
        <ele>1204.67</ele>
        <time>2016-04-10T08:52:21Z</time>
      </trkpt>
      <trkpt lat="42.93531" lon="0.84779">
        <ele>1206.59</ele>
        <time>2016-04-10T08:52:36Z</time>
      </trkpt>
      <trkpt lat="42.93524" lon="0.84764">
        <ele>1207.55</ele>
        <time>2016-04-10T08:52:50Z</time>
      </trkpt>
      <trkpt lat="42.93519" lon="0.84749">
        <ele>1208.03</ele>
        <time>2016-04-10T08:53:03Z</time>
      </trkpt>
      <trkpt lat="42.93513" lon="0.84728">
        <ele>1208.03</ele>
        <time>2016-04-10T08:53:17Z</time>
      </trkpt>
      <trkpt lat="42.93504" lon="0.84711">
        <ele>1208.03</ele>
        <time>2016-04-10T08:53:32Z</time>
      </trkpt>
      <trkpt lat="42.93496" lon="0.84688">
        <ele>1210.44</ele>
        <time>2016-04-10T08:53:50Z</time>
      </trkpt>
      <trkpt lat="42.93493" lon="0.84677">
        <ele>1211.4</ele>
        <time>2016-04-10T08:54:01Z</time>
      </trkpt>
      <trkpt lat="42.93485" lon="0.84654">
        <ele>1212.36</ele>
        <time>2016-04-10T08:54:19Z</time>
      </trkpt>
      <trkpt lat="42.93465" lon="0.84624">
        <ele>1216.69</ele>
        <time>2016-04-10T08:54:50Z</time>
      </trkpt>
      <trkpt lat="42.93448" lon="0.8461">
        <ele>1219.09</ele>
        <time>2016-04-10T08:55:12Z</time>
      </trkpt>
      <trkpt lat="42.93431" lon="0.84599">
        <ele>1218.13</ele>
        <time>2016-04-10T08:55:33Z</time>
      </trkpt>
      <trkpt lat="42.93414" lon="0.84599">
        <ele>1219.09</ele>
        <time>2016-04-10T08:55:50Z</time>
      </trkpt>
      <trkpt lat="42.93401" lon="0.84587">
        <ele>1220.53</ele>
        <time>2016-04-10T08:56:05Z</time>
      </trkpt>
      <trkpt lat="42.93391" lon="0.8457">
        <ele>1219.57</ele>
        <time>2016-04-10T08:56:20Z</time>
      </trkpt>
      <trkpt lat="42.93386" lon="0.84551">
        <ele>1219.57</ele>
        <time>2016-04-10T08:56:32Z</time>
      </trkpt>
      <trkpt lat="42.93377" lon="0.84531">
        <ele>1218.61</ele>
        <time>2016-04-10T08:56:48Z</time>
      </trkpt>
      <trkpt lat="42.93365" lon="0.84507">
        <ele>1218.13</ele>
        <time>2016-04-10T08:57:08Z</time>
      </trkpt>
      <trkpt lat="42.93357" lon="0.84488">
        <ele>1217.65</ele>
        <time>2016-04-10T08:57:24Z</time>
      </trkpt>
      <trkpt lat="42.93345" lon="0.84463">
        <ele>1213.8</ele>
        <time>2016-04-10T08:57:46Z</time>
      </trkpt>
      <trkpt lat="42.93331" lon="0.84438">
        <ele>1212.84</ele>
        <time>2016-04-10T08:58:06Z</time>
      </trkpt>
      <trkpt lat="42.93324" lon="0.84416">
        <ele>1211.4</ele>
        <time>2016-04-10T08:58:25Z</time>
      </trkpt>
      <trkpt lat="42.93303" lon="0.844">
        <ele>1209</ele>
        <time>2016-04-10T09:00:11Z</time>
      </trkpt>
      <trkpt lat="42.93289" lon="0.84392">
        <ele>1208.03</ele>
        <time>2016-04-10T09:00:28Z</time>
      </trkpt>
      <trkpt lat="42.93276" lon="0.84378">
        <ele>1209</ele>
        <time>2016-04-10T09:00:52Z</time>
      </trkpt>
      <trkpt lat="42.93266" lon="0.84374">
        <ele>1207.07</ele>
        <time>2016-04-10T09:01:38Z</time>
      </trkpt>
      <trkpt lat="42.93244" lon="0.84354">
        <ele>1205.63</ele>
        <time>2016-04-10T09:02:04Z</time>
      </trkpt>
      <trkpt lat="42.93233" lon="0.84344">
        <ele>1207.07</ele>
        <time>2016-04-10T09:02:21Z</time>
      </trkpt>
      <trkpt lat="42.93223" lon="0.84331">
        <ele>1207.55</ele>
        <time>2016-04-10T09:02:35Z</time>
      </trkpt>
      <trkpt lat="42.93212" lon="0.84315">
        <ele>1207.07</ele>
        <time>2016-04-10T09:02:51Z</time>
      </trkpt>
      <trkpt lat="42.93202" lon="0.84295">
        <ele>1206.11</ele>
        <time>2016-04-10T09:03:07Z</time>
      </trkpt>
      <trkpt lat="42.93193" lon="0.84279">
        <ele>1204.19</ele>
        <time>2016-04-10T09:03:20Z</time>
      </trkpt>
      <trkpt lat="42.93184" lon="0.84261">
        <ele>1202.75</ele>
        <time>2016-04-10T09:03:42Z</time>
      </trkpt>
      <trkpt lat="42.93163" lon="0.8425">
        <ele>1202.75</ele>
        <time>2016-04-10T09:04:01Z</time>
      </trkpt>
      <trkpt lat="42.93153" lon="0.84243">
        <ele>1204.19</ele>
        <time>2016-04-10T09:04:19Z</time>
      </trkpt>
      <trkpt lat="42.93167" lon="0.84241">
        <ele>1203.23</ele>
        <time>2016-04-10T09:05:17Z</time>
      </trkpt>
      <trkpt lat="42.93164" lon="0.84246">
        <ele>1202.75</ele>
        <time>2016-04-10T09:07:52Z</time>
      </trkpt>
      <trkpt lat="42.93144" lon="0.84242">
        <ele>1205.15</ele>
        <time>2016-04-10T09:08:19Z</time>
      </trkpt>
      <trkpt lat="42.93131" lon="0.84238">
        <ele>1209</ele>
        <time>2016-04-10T09:08:40Z</time>
      </trkpt>
      <trkpt lat="42.93116" lon="0.84231">
        <ele>1213.8</ele>
        <time>2016-04-10T09:09:08Z</time>
      </trkpt>
      <trkpt lat="42.93105" lon="0.84224">
        <ele>1219.09</ele>
        <time>2016-04-10T09:09:41Z</time>
      </trkpt>
      <trkpt lat="42.93103" lon="0.84214">
        <ele>1222.45</ele>
        <time>2016-04-10T09:09:59Z</time>
      </trkpt>
      <trkpt lat="42.93099" lon="0.84205">
        <ele>1225.82</ele>
        <time>2016-04-10T09:10:17Z</time>
      </trkpt>
      <trkpt lat="42.93097" lon="0.84191">
        <ele>1229.66</ele>
        <time>2016-04-10T09:10:37Z</time>
      </trkpt>
      <trkpt lat="42.93085" lon="0.84174">
        <ele>1232.07</ele>
        <time>2016-04-10T09:10:57Z</time>
      </trkpt>
      <trkpt lat="42.93073" lon="0.8417">
        <ele>1234.95</ele>
        <time>2016-04-10T09:12:09Z</time>
      </trkpt>
      <trkpt lat="42.93065" lon="0.84179">
        <ele>1237.83</ele>
        <time>2016-04-10T09:12:24Z</time>
      </trkpt>
      <trkpt lat="42.93057" lon="0.8419">
        <ele>1240.24</ele>
        <time>2016-04-10T09:12:37Z</time>
      </trkpt>
      <trkpt lat="42.93049" lon="0.842">
        <ele>1243.12</ele>
        <time>2016-04-10T09:12:51Z</time>
      </trkpt>
      <trkpt lat="42.93041" lon="0.84206">
        <ele>1246.01</ele>
        <time>2016-04-10T09:13:10Z</time>
      </trkpt>
      <trkpt lat="42.93024" lon="0.842">
        <ele>1250.33</ele>
        <time>2016-04-10T09:13:41Z</time>
      </trkpt>
      <trkpt lat="42.93011" lon="0.84195">
        <ele>1255.14</ele>
        <time>2016-04-10T09:14:15Z</time>
      </trkpt>
      <trkpt lat="42.93001" lon="0.84185">
        <ele>1259.94</ele>
        <time>2016-04-10T09:15:08Z</time>
      </trkpt>
      <trkpt lat="42.92991" lon="0.84176">
        <ele>1265.23</ele>
        <time>2016-04-10T09:15:32Z</time>
      </trkpt>
      <trkpt lat="42.92976" lon="0.84165">
        <ele>1270.52</ele>
        <time>2016-04-10T09:15:56Z</time>
      </trkpt>
      <trkpt lat="42.92964" lon="0.84155">
        <ele>1274.85</ele>
        <time>2016-04-10T09:16:16Z</time>
      </trkpt>
      <trkpt lat="42.92953" lon="0.84158">
        <ele>1277.25</ele>
        <time>2016-04-10T09:16:32Z</time>
      </trkpt>
      <trkpt lat="42.92944" lon="0.84158">
        <ele>1279.65</ele>
        <time>2016-04-10T09:16:47Z</time>
      </trkpt>
      <trkpt lat="42.92937" lon="0.84155">
        <ele>1282.06</ele>
        <time>2016-04-10T09:18:03Z</time>
      </trkpt>
      <trkpt lat="42.92925" lon="0.84156">
        <ele>1284.94</ele>
        <time>2016-04-10T09:18:21Z</time>
      </trkpt>
      <trkpt lat="42.92909" lon="0.84151">
        <ele>1288.3</ele>
        <time>2016-04-10T09:18:41Z</time>
      </trkpt>
      <trkpt lat="42.92895" lon="0.8415">
        <ele>1292.15</ele>
        <time>2016-04-10T09:19:07Z</time>
      </trkpt>
      <trkpt lat="42.92884" lon="0.84151">
        <ele>1295.99</ele>
        <time>2016-04-10T09:19:31Z</time>
      </trkpt>
      <trkpt lat="42.9287" lon="0.84149">
        <ele>1300.32</ele>
        <time>2016-04-10T09:19:56Z</time>
      </trkpt>
      <trkpt lat="42.92859" lon="0.8415">
        <ele>1303.69</ele>
        <time>2016-04-10T09:20:45Z</time>
      </trkpt>
      <trkpt lat="42.92846" lon="0.84148">
        <ele>1307.05</ele>
        <time>2016-04-10T09:21:10Z</time>
      </trkpt>
      <trkpt lat="42.92831" lon="0.84139">
        <ele>1310.9</ele>
        <time>2016-04-10T09:21:34Z</time>
      </trkpt>
      <trkpt lat="42.92811" lon="0.84124">
        <ele>1314.74</ele>
        <time>2016-04-10T09:22:07Z</time>
      </trkpt>
      <trkpt lat="42.92802" lon="0.84125">
        <ele>1318.1</ele>
        <time>2016-04-10T09:22:48Z</time>
      </trkpt>
      <trkpt lat="42.92789" lon="0.84132">
        <ele>1322.91</ele>
        <time>2016-04-10T09:23:20Z</time>
      </trkpt>
      <trkpt lat="42.9278" lon="0.84143">
        <ele>1327.72</ele>
        <time>2016-04-10T09:23:43Z</time>
      </trkpt>
      <trkpt lat="42.92768" lon="0.84146">
        <ele>1332.04</ele>
        <time>2016-04-10T09:24:18Z</time>
      </trkpt>
      <trkpt lat="42.92757" lon="0.84151">
        <ele>1336.37</ele>
        <time>2016-04-10T09:24:47Z</time>
      </trkpt>
      <trkpt lat="42.92746" lon="0.84159">
        <ele>1340.7</ele>
        <time>2016-04-10T09:25:15Z</time>
      </trkpt>
      <trkpt lat="42.92738" lon="0.8417">
        <ele>1344.06</ele>
        <time>2016-04-10T09:25:43Z</time>
      </trkpt>
      <trkpt lat="42.92731" lon="0.84182">
        <ele>1346.94</ele>
        <time>2016-04-10T09:26:12Z</time>
      </trkpt>
      <trkpt lat="42.92724" lon="0.84194">
        <ele>1349.83</ele>
        <time>2016-04-10T09:26:38Z</time>
      </trkpt>
      <trkpt lat="42.92713" lon="0.84201">
        <ele>1352.71</ele>
        <time>2016-04-10T09:27:06Z</time>
      </trkpt>
      <trkpt lat="42.92705" lon="0.84206">
        <ele>1355.6</ele>
        <time>2016-04-10T09:27:28Z</time>
      </trkpt>
      <trkpt lat="42.92697" lon="0.84214">
        <ele>1358.96</ele>
        <time>2016-04-10T09:27:50Z</time>
      </trkpt>
      <trkpt lat="42.92689" lon="0.84223">
        <ele>1361.84</ele>
        <time>2016-04-10T09:28:16Z</time>
      </trkpt>
      <trkpt lat="42.92675" lon="0.84224">
        <ele>1363.29</ele>
        <time>2016-04-10T09:32:21Z</time>
      </trkpt>
      <trkpt lat="42.92663" lon="0.84223">
        <ele>1367.61</ele>
        <time>2016-04-10T09:32:54Z</time>
      </trkpt>
      <trkpt lat="42.92649" lon="0.8422">
        <ele>1373.86</ele>
        <time>2016-04-10T09:33:31Z</time>
      </trkpt>
      <trkpt lat="42.92637" lon="0.84224">
        <ele>1378.19</ele>
        <time>2016-04-10T09:33:57Z</time>
      </trkpt>
      <trkpt lat="42.92627" lon="0.84211">
        <ele>1381.07</ele>
        <time>2016-04-10T09:35:04Z</time>
      </trkpt>
      <trkpt lat="42.92616" lon="0.84217">
        <ele>1385.4</ele>
        <time>2016-04-10T09:35:32Z</time>
      </trkpt>
      <trkpt lat="42.92602" lon="0.8422">
        <ele>1389.24</ele>
        <time>2016-04-10T09:35:59Z</time>
      </trkpt>
      <trkpt lat="42.92592" lon="0.84234">
        <ele>1393.57</ele>
        <time>2016-04-10T09:37:07Z</time>
      </trkpt>
      <trkpt lat="42.92598" lon="0.84253">
        <ele>1395.49</ele>
        <time>2016-04-10T09:37:27Z</time>
      </trkpt>
      <trkpt lat="42.92598" lon="0.84266">
        <ele>1397.89</ele>
        <time>2016-04-10T09:37:51Z</time>
      </trkpt>
      <trkpt lat="42.92594" lon="0.84279">
        <ele>1401.74</ele>
        <time>2016-04-10T09:38:13Z</time>
      </trkpt>
      <trkpt lat="42.92592" lon="0.84295">
        <ele>1404.14</ele>
        <time>2016-04-10T09:38:34Z</time>
      </trkpt>
      <trkpt lat="42.92589" lon="0.84309">
        <ele>1407.51</ele>
        <time>2016-04-10T09:38:56Z</time>
      </trkpt>
      <trkpt lat="42.92588" lon="0.84324">
        <ele>1409.91</ele>
        <time>2016-04-10T09:39:17Z</time>
      </trkpt>
      <trkpt lat="42.92577" lon="0.84326">
        <ele>1411.83</ele>
        <time>2016-04-10T09:39:39Z</time>
      </trkpt>
      <trkpt lat="42.92568" lon="0.84347">
        <ele>1417.12</ele>
        <time>2016-04-10T09:40:23Z</time>
      </trkpt>
      <trkpt lat="42.92564" lon="0.84363">
        <ele>1420.49</ele>
        <time>2016-04-10T09:40:45Z</time>
      </trkpt>
      <trkpt lat="42.92552" lon="0.84372">
        <ele>1422.89</ele>
        <time>2016-04-10T09:41:03Z</time>
      </trkpt>
      <trkpt lat="42.92549" lon="0.84382">
        <ele>1424.81</ele>
        <time>2016-04-10T09:41:18Z</time>
      </trkpt>
      <trkpt lat="42.92547" lon="0.84376">
        <ele>1425.77</ele>
        <time>2016-04-10T09:42:28Z</time>
      </trkpt>
      <trkpt lat="42.92543" lon="0.84398">
        <ele>1425.77</ele>
        <time>2016-04-10T09:42:53Z</time>
      </trkpt>
      <trkpt lat="42.92536" lon="0.8441">
        <ele>1422.89</ele>
        <time>2016-04-10T09:43:05Z</time>
      </trkpt>
      <trkpt lat="42.92524" lon="0.84412">
        <ele>1422.41</ele>
        <time>2016-04-10T09:43:15Z</time>
      </trkpt>
      <trkpt lat="42.92511" lon="0.84411">
        <ele>1423.37</ele>
        <time>2016-04-10T09:43:32Z</time>
      </trkpt>
      <trkpt lat="42.92498" lon="0.84406">
        <ele>1424.33</ele>
        <time>2016-04-10T09:43:56Z</time>
      </trkpt>
      <trkpt lat="42.92492" lon="0.84399">
        <ele>1428.66</ele>
        <time>2016-04-10T09:44:29Z</time>
      </trkpt>
      <trkpt lat="42.92494" lon="0.84381">
        <ele>1433.46</ele>
        <time>2016-04-10T09:45:09Z</time>
      </trkpt>
      <trkpt lat="42.92502" lon="0.84361">
        <ele>1440.19</ele>
        <time>2016-04-10T09:45:59Z</time>
      </trkpt>
      <trkpt lat="42.92482" lon="0.84326">
        <ele>1445.96</ele>
        <time>2016-04-10T09:46:53Z</time>
      </trkpt>
      <trkpt lat="42.92463" lon="0.84316">
        <ele>1453.17</ele>
        <time>2016-04-10T09:48:01Z</time>
      </trkpt>
      <trkpt lat="42.92447" lon="0.84306">
        <ele>1459.9</ele>
        <time>2016-04-10T09:48:58Z</time>
      </trkpt>
      <trkpt lat="42.92428" lon="0.8431">
        <ele>1464.23</ele>
        <time>2016-04-10T09:49:35Z</time>
      </trkpt>
      <trkpt lat="42.92435" lon="0.84311">
        <ele>1467.59</ele>
        <time>2016-04-10T09:56:02Z</time>
      </trkpt>
      <trkpt lat="42.92416" lon="0.84293">
        <ele>1469.51</ele>
        <time>2016-04-10T09:56:37Z</time>
      </trkpt>
      <trkpt lat="42.92405" lon="0.84285">
        <ele>1470.95</ele>
        <time>2016-04-10T09:56:54Z</time>
      </trkpt>
      <trkpt lat="42.92396" lon="0.84277">
        <ele>1473.84</ele>
        <time>2016-04-10T09:57:14Z</time>
      </trkpt>
      <trkpt lat="42.92388" lon="0.84273">
        <ele>1476.24</ele>
        <time>2016-04-10T09:57:33Z</time>
      </trkpt>
      <trkpt lat="42.92378" lon="0.84268">
        <ele>1477.68</ele>
        <time>2016-04-10T09:57:50Z</time>
      </trkpt>
      <trkpt lat="42.9237" lon="0.84266">
        <ele>1479.13</ele>
        <time>2016-04-10T09:58:06Z</time>
      </trkpt>
      <trkpt lat="42.9236" lon="0.84265">
        <ele>1480.09</ele>
        <time>2016-04-10T09:58:19Z</time>
      </trkpt>
      <trkpt lat="42.92357" lon="0.84255">
        <ele>1481.05</ele>
        <time>2016-04-10T09:58:32Z</time>
      </trkpt>
      <trkpt lat="42.92356" lon="0.84241">
        <ele>1478.16</ele>
        <time>2016-04-10T09:58:46Z</time>
      </trkpt>
      <trkpt lat="42.92352" lon="0.84229">
        <ele>1477.2</ele>
        <time>2016-04-10T09:58:58Z</time>
      </trkpt>
      <trkpt lat="42.92346" lon="0.84215">
        <ele>1476.24</ele>
        <time>2016-04-10T09:59:11Z</time>
      </trkpt>
      <trkpt lat="42.92338" lon="0.84206">
        <ele>1475.28</ele>
        <time>2016-04-10T09:59:22Z</time>
      </trkpt>
      <trkpt lat="42.92331" lon="0.84196">
        <ele>1475.28</ele>
        <time>2016-04-10T09:59:33Z</time>
      </trkpt>
      <trkpt lat="42.92323" lon="0.84187">
        <ele>1473.84</ele>
        <time>2016-04-10T09:59:44Z</time>
      </trkpt>
      <trkpt lat="42.92318" lon="0.84177">
        <ele>1473.36</ele>
        <time>2016-04-10T09:59:55Z</time>
      </trkpt>
      <trkpt lat="42.92311" lon="0.84167">
        <ele>1472.88</ele>
        <time>2016-04-10T10:00:07Z</time>
      </trkpt>
      <trkpt lat="42.92305" lon="0.84154">
        <ele>1470.47</ele>
        <time>2016-04-10T10:00:18Z</time>
      </trkpt>
      <trkpt lat="42.92298" lon="0.84146">
        <ele>1468.55</ele>
        <time>2016-04-10T10:00:29Z</time>
      </trkpt>
      <trkpt lat="42.92291" lon="0.84133">
        <ele>1467.11</ele>
        <time>2016-04-10T10:00:42Z</time>
      </trkpt>
      <trkpt lat="42.92284" lon="0.84123">
        <ele>1465.67</ele>
        <time>2016-04-10T10:00:55Z</time>
      </trkpt>
      <trkpt lat="42.92279" lon="0.84112">
        <ele>1465.19</ele>
        <time>2016-04-10T10:01:06Z</time>
      </trkpt>
      <trkpt lat="42.9227" lon="0.84101">
        <ele>1464.71</ele>
        <time>2016-04-10T10:01:18Z</time>
      </trkpt>
      <trkpt lat="42.92262" lon="0.84091">
        <ele>1464.23</ele>
        <time>2016-04-10T10:01:29Z</time>
      </trkpt>
      <trkpt lat="42.92255" lon="0.84082">
        <ele>1464.23</ele>
        <time>2016-04-10T10:01:40Z</time>
      </trkpt>
      <trkpt lat="42.92252" lon="0.84074">
        <ele>1464.71</ele>
        <time>2016-04-10T10:01:59Z</time>
      </trkpt>
      <trkpt lat="42.92245" lon="0.84059">
        <ele>1469.03</ele>
        <time>2016-04-10T10:02:18Z</time>
      </trkpt>
      <trkpt lat="42.92239" lon="0.84049">
        <ele>1472.4</ele>
        <time>2016-04-10T10:02:36Z</time>
      </trkpt>
      <trkpt lat="42.92233" lon="0.8404">
        <ele>1474.8</ele>
        <time>2016-04-10T10:02:52Z</time>
      </trkpt>
      <trkpt lat="42.92227" lon="0.84032">
        <ele>1477.68</ele>
        <time>2016-04-10T10:03:16Z</time>
      </trkpt>
      <trkpt lat="42.9222" lon="0.84022">
        <ele>1480.09</ele>
        <time>2016-04-10T10:03:31Z</time>
      </trkpt>
      <trkpt lat="42.92213" lon="0.84013">
        <ele>1482.01</ele>
        <time>2016-04-10T10:03:45Z</time>
      </trkpt>
      <trkpt lat="42.92206" lon="0.84005">
        <ele>1483.93</ele>
        <time>2016-04-10T10:04:00Z</time>
      </trkpt>
      <trkpt lat="42.922" lon="0.83995">
        <ele>1487.78</ele>
        <time>2016-04-10T10:04:18Z</time>
      </trkpt>
      <trkpt lat="42.92192" lon="0.83989">
        <ele>1488.26</ele>
        <time>2016-04-10T10:04:36Z</time>
      </trkpt>
      <trkpt lat="42.92186" lon="0.8398">
        <ele>1491.14</ele>
        <time>2016-04-10T10:04:50Z</time>
      </trkpt>
      <trkpt lat="42.92179" lon="0.83972">
        <ele>1493.06</ele>
        <time>2016-04-10T10:05:07Z</time>
      </trkpt>
      <trkpt lat="42.92176" lon="0.83962">
        <ele>1494.99</ele>
        <time>2016-04-10T10:05:25Z</time>
      </trkpt>
      <trkpt lat="42.92169" lon="0.83951">
        <ele>1495.95</ele>
        <time>2016-04-10T10:05:41Z</time>
      </trkpt>
      <trkpt lat="42.92164" lon="0.83941">
        <ele>1498.83</ele>
        <time>2016-04-10T10:06:00Z</time>
      </trkpt>
      <trkpt lat="42.92158" lon="0.8393">
        <ele>1502.2</ele>
        <time>2016-04-10T10:06:18Z</time>
      </trkpt>
      <trkpt lat="42.92152" lon="0.8392">
        <ele>1505.08</ele>
        <time>2016-04-10T10:06:34Z</time>
      </trkpt>
      <trkpt lat="42.92146" lon="0.8391">
        <ele>1507.97</ele>
        <time>2016-04-10T10:06:51Z</time>
      </trkpt>
      <trkpt lat="42.92141" lon="0.83903">
        <ele>1509.89</ele>
        <time>2016-04-10T10:07:07Z</time>
      </trkpt>
      <trkpt lat="42.92137" lon="0.83891">
        <ele>1512.29</ele>
        <time>2016-04-10T10:07:22Z</time>
      </trkpt>
      <trkpt lat="42.9213" lon="0.83883">
        <ele>1515.18</ele>
        <time>2016-04-10T10:07:36Z</time>
      </trkpt>
      <trkpt lat="42.92124" lon="0.83875">
        <ele>1516.14</ele>
        <time>2016-04-10T10:07:48Z</time>
      </trkpt>
      <trkpt lat="42.92116" lon="0.83869">
        <ele>1517.58</ele>
        <time>2016-04-10T10:08:02Z</time>
      </trkpt>
      <trkpt lat="42.92109" lon="0.83858">
        <ele>1519.02</ele>
        <time>2016-04-10T10:08:16Z</time>
      </trkpt>
      <trkpt lat="42.921" lon="0.83853">
        <ele>1520.46</ele>
        <time>2016-04-10T10:08:32Z</time>
      </trkpt>
      <trkpt lat="42.92095" lon="0.83843">
        <ele>1522.39</ele>
        <time>2016-04-10T10:08:46Z</time>
      </trkpt>
      <trkpt lat="42.92087" lon="0.83833">
        <ele>1525.27</ele>
        <time>2016-04-10T10:09:01Z</time>
      </trkpt>
      <trkpt lat="42.92079" lon="0.83825">
        <ele>1526.23</ele>
        <time>2016-04-10T10:09:14Z</time>
      </trkpt>
      <trkpt lat="42.92072" lon="0.83816">
        <ele>1525.75</ele>
        <time>2016-04-10T10:09:27Z</time>
      </trkpt>
      <trkpt lat="42.92068" lon="0.83805">
        <ele>1527.19</ele>
        <time>2016-04-10T10:09:39Z</time>
      </trkpt>
      <trkpt lat="42.92064" lon="0.83794">
        <ele>1528.15</ele>
        <time>2016-04-10T10:09:54Z</time>
      </trkpt>
      <trkpt lat="42.92061" lon="0.83782">
        <ele>1530.08</ele>
        <time>2016-04-10T10:10:07Z</time>
      </trkpt>
      <trkpt lat="42.92057" lon="0.83778">
        <ele>1527.19</ele>
        <time>2016-04-10T10:12:17Z</time>
      </trkpt>
      <trkpt lat="42.92052" lon="0.83777">
        <ele>1527.19</ele>
        <time>2016-04-10T10:14:49Z</time>
      </trkpt>
      <trkpt lat="42.92047" lon="0.83767">
        <ele>1528.15</ele>
        <time>2016-04-10T10:15:25Z</time>
      </trkpt>
      <trkpt lat="42.92043" lon="0.83755">
        <ele>1528.63</ele>
        <time>2016-04-10T10:15:38Z</time>
      </trkpt>
      <trkpt lat="42.92037" lon="0.83745">
        <ele>1529.59</ele>
        <time>2016-04-10T10:15:52Z</time>
      </trkpt>
      <trkpt lat="42.92032" lon="0.83734">
        <ele>1531.04</ele>
        <time>2016-04-10T10:16:04Z</time>
      </trkpt>
      <trkpt lat="42.92026" lon="0.83724">
        <ele>1532.96</ele>
        <time>2016-04-10T10:16:16Z</time>
      </trkpt>
      <trkpt lat="42.92022" lon="0.83714">
        <ele>1534.88</ele>
        <time>2016-04-10T10:16:28Z</time>
      </trkpt>
      <trkpt lat="42.92018" lon="0.83701">
        <ele>1537.77</ele>
        <time>2016-04-10T10:16:44Z</time>
      </trkpt>
      <trkpt lat="42.92014" lon="0.83689">
        <ele>1539.69</ele>
        <time>2016-04-10T10:16:58Z</time>
      </trkpt>
      <trkpt lat="42.92012" lon="0.83677">
        <ele>1542.09</ele>
        <time>2016-04-10T10:17:14Z</time>
      </trkpt>
      <trkpt lat="42.92009" lon="0.83665">
        <ele>1544.98</ele>
        <time>2016-04-10T10:17:31Z</time>
      </trkpt>
      <trkpt lat="42.92007" lon="0.83653">
        <ele>1546.42</ele>
        <time>2016-04-10T10:17:47Z</time>
      </trkpt>
      <trkpt lat="42.92001" lon="0.83642">
        <ele>1549.78</ele>
        <time>2016-04-10T10:18:02Z</time>
      </trkpt>
      <trkpt lat="42.92001" lon="0.8363">
        <ele>1549.3</ele>
        <time>2016-04-10T10:18:25Z</time>
      </trkpt>
      <trkpt lat="42.92001" lon="0.83619">
        <ele>1552.19</ele>
        <time>2016-04-10T10:18:55Z</time>
      </trkpt>
      <trkpt lat="42.91999" lon="0.83608">
        <ele>1555.07</ele>
        <time>2016-04-10T10:19:19Z</time>
      </trkpt>
      <trkpt lat="42.92002" lon="0.83595">
        <ele>1558.92</ele>
        <time>2016-04-10T10:19:37Z</time>
      </trkpt>
      <trkpt lat="42.91998" lon="0.83584">
        <ele>1561.32</ele>
        <time>2016-04-10T10:19:59Z</time>
      </trkpt>
      <trkpt lat="42.92" lon="0.83572">
        <ele>1565.64</ele>
        <time>2016-04-10T10:20:23Z</time>
      </trkpt>
      <trkpt lat="42.91998" lon="0.83559">
        <ele>1568.53</ele>
        <time>2016-04-10T10:20:47Z</time>
      </trkpt>
      <trkpt lat="42.91999" lon="0.83546">
        <ele>1571.89</ele>
        <time>2016-04-10T10:21:07Z</time>
      </trkpt>
      <trkpt lat="42.91995" lon="0.83534">
        <ele>1575.26</ele>
        <time>2016-04-10T10:21:26Z</time>
      </trkpt>
      <trkpt lat="42.91987" lon="0.83525">
        <ele>1578.14</ele>
        <time>2016-04-10T10:21:48Z</time>
      </trkpt>
      <trkpt lat="42.91987" lon="0.83514">
        <ele>1578.62</ele>
        <time>2016-04-10T10:22:04Z</time>
      </trkpt>
      <trkpt lat="42.91989" lon="0.83501">
        <ele>1580.54</ele>
        <time>2016-04-10T10:22:17Z</time>
      </trkpt>
      <trkpt lat="42.9199" lon="0.83489">
        <ele>1582.95</ele>
        <time>2016-04-10T10:22:38Z</time>
      </trkpt>
      <trkpt lat="42.91989" lon="0.83475">
        <ele>1583.91</ele>
        <time>2016-04-10T10:22:50Z</time>
      </trkpt>
      <trkpt lat="42.91985" lon="0.83461">
        <ele>1585.83</ele>
        <time>2016-04-10T10:23:04Z</time>
      </trkpt>
      <trkpt lat="42.91982" lon="0.83447">
        <ele>1586.79</ele>
        <time>2016-04-10T10:23:22Z</time>
      </trkpt>
      <trkpt lat="42.91983" lon="0.83436">
        <ele>1588.72</ele>
        <time>2016-04-10T10:23:33Z</time>
      </trkpt>
      <trkpt lat="42.91981" lon="0.83424">
        <ele>1590.16</ele>
        <time>2016-04-10T10:23:44Z</time>
      </trkpt>
      <trkpt lat="42.91982" lon="0.83412">
        <ele>1590.64</ele>
        <time>2016-04-10T10:23:55Z</time>
      </trkpt>
      <trkpt lat="42.91984" lon="0.83399">
        <ele>1591.6</ele>
        <time>2016-04-10T10:24:07Z</time>
      </trkpt>
      <trkpt lat="42.91987" lon="0.83386">
        <ele>1593.52</ele>
        <time>2016-04-10T10:24:20Z</time>
      </trkpt>
      <trkpt lat="42.91991" lon="0.83374">
        <ele>1595.45</ele>
        <time>2016-04-10T10:24:33Z</time>
      </trkpt>
      <trkpt lat="42.91995" lon="0.83362">
        <ele>1597.37</ele>
        <time>2016-04-10T10:24:47Z</time>
      </trkpt>
      <trkpt lat="42.91996" lon="0.83351">
        <ele>1601.21</ele>
        <time>2016-04-10T10:25:01Z</time>
      </trkpt>
      <trkpt lat="42.91998" lon="0.83338">
        <ele>1607.46</ele>
        <time>2016-04-10T10:25:30Z</time>
      </trkpt>
      <trkpt lat="42.91997" lon="0.83325">
        <ele>1610.35</ele>
        <time>2016-04-10T10:25:50Z</time>
      </trkpt>
      <trkpt lat="42.91996" lon="0.83312">
        <ele>1611.79</ele>
        <time>2016-04-10T10:26:13Z</time>
      </trkpt>
      <trkpt lat="42.91993" lon="0.83302">
        <ele>1614.19</ele>
        <time>2016-04-10T10:26:36Z</time>
      </trkpt>
      <trkpt lat="42.91994" lon="0.8329">
        <ele>1616.11</ele>
        <time>2016-04-10T10:26:52Z</time>
      </trkpt>
      <trkpt lat="42.91993" lon="0.8328">
        <ele>1615.63</ele>
        <time>2016-04-10T10:27:04Z</time>
      </trkpt>
      <trkpt lat="42.91991" lon="0.83268">
        <ele>1616.59</ele>
        <time>2016-04-10T10:27:22Z</time>
      </trkpt>
      <trkpt lat="42.91987" lon="0.83257">
        <ele>1617.07</ele>
        <time>2016-04-10T10:27:35Z</time>
      </trkpt>
      <trkpt lat="42.91985" lon="0.83246">
        <ele>1617.56</ele>
        <time>2016-04-10T10:27:48Z</time>
      </trkpt>
      <trkpt lat="42.91982" lon="0.83233">
        <ele>1618.52</ele>
        <time>2016-04-10T10:28:02Z</time>
      </trkpt>
      <trkpt lat="42.91977" lon="0.83222">
        <ele>1620.92</ele>
        <time>2016-04-10T10:28:16Z</time>
      </trkpt>
      <trkpt lat="42.91972" lon="0.83212">
        <ele>1621.88</ele>
        <time>2016-04-10T10:28:31Z</time>
      </trkpt>
      <trkpt lat="42.91969" lon="0.83199">
        <ele>1624.28</ele>
        <time>2016-04-10T10:28:43Z</time>
      </trkpt>
      <trkpt lat="42.91969" lon="0.83185">
        <ele>1624.28</ele>
        <time>2016-04-10T10:28:55Z</time>
      </trkpt>
      <trkpt lat="42.91969" lon="0.83174">
        <ele>1625.73</ele>
        <time>2016-04-10T10:29:13Z</time>
      </trkpt>
      <trkpt lat="42.91966" lon="0.8316">
        <ele>1626.21</ele>
        <time>2016-04-10T10:29:29Z</time>
      </trkpt>
      <trkpt lat="42.91963" lon="0.83149">
        <ele>1628.13</ele>
        <time>2016-04-10T10:29:44Z</time>
      </trkpt>
      <trkpt lat="42.91958" lon="0.83137">
        <ele>1628.61</ele>
        <time>2016-04-10T10:30:27Z</time>
      </trkpt>
      <trkpt lat="42.91954" lon="0.83124">
        <ele>1628.13</ele>
        <time>2016-04-10T10:30:37Z</time>
      </trkpt>
      <trkpt lat="42.91951" lon="0.83113">
        <ele>1629.09</ele>
        <time>2016-04-10T10:30:57Z</time>
      </trkpt>
      <trkpt lat="42.9195" lon="0.83101">
        <ele>1628.61</ele>
        <time>2016-04-10T10:31:08Z</time>
      </trkpt>
      <trkpt lat="42.91948" lon="0.83089">
        <ele>1629.09</ele>
        <time>2016-04-10T10:31:18Z</time>
      </trkpt>
      <trkpt lat="42.91948" lon="0.83076">
        <ele>1629.57</ele>
        <time>2016-04-10T10:31:31Z</time>
      </trkpt>
      <trkpt lat="42.91949" lon="0.83063">
        <ele>1630.05</ele>
        <time>2016-04-10T10:31:46Z</time>
      </trkpt>
      <trkpt lat="42.91949" lon="0.8305">
        <ele>1631.01</ele>
        <time>2016-04-10T10:32:01Z</time>
      </trkpt>
      <trkpt lat="42.91946" lon="0.83037">
        <ele>1631.98</ele>
        <time>2016-04-10T10:32:14Z</time>
      </trkpt>
      <trkpt lat="42.91943" lon="0.83026">
        <ele>1634.86</ele>
        <time>2016-04-10T10:32:28Z</time>
      </trkpt>
      <trkpt lat="42.9194" lon="0.83015">
        <ele>1637.26</ele>
        <time>2016-04-10T10:32:43Z</time>
      </trkpt>
      <trkpt lat="42.91935" lon="0.83007">
        <ele>1639.19</ele>
        <time>2016-04-10T10:32:58Z</time>
      </trkpt>
      <trkpt lat="42.91929" lon="0.83005">
        <ele>1641.11</ele>
        <time>2016-04-10T10:33:14Z</time>
      </trkpt>
      <trkpt lat="42.91923" lon="0.82997">
        <ele>1643.99</ele>
        <time>2016-04-10T10:33:32Z</time>
      </trkpt>
      <trkpt lat="42.91919" lon="0.82986">
        <ele>1645.43</ele>
        <time>2016-04-10T10:33:46Z</time>
      </trkpt>
      <trkpt lat="42.91913" lon="0.82981">
        <ele>1647.84</ele>
        <time>2016-04-10T10:34:00Z</time>
      </trkpt>
      <trkpt lat="42.91908" lon="0.8297">
        <ele>1648.8</ele>
        <time>2016-04-10T10:34:13Z</time>
      </trkpt>
      <trkpt lat="42.919" lon="0.82963">
        <ele>1651.68</ele>
        <time>2016-04-10T10:34:26Z</time>
      </trkpt>
      <trkpt lat="42.91894" lon="0.82951">
        <ele>1653.6</ele>
        <time>2016-04-10T10:34:39Z</time>
      </trkpt>
      <trkpt lat="42.91889" lon="0.82941">
        <ele>1654.57</ele>
        <time>2016-04-10T10:34:50Z</time>
      </trkpt>
      <trkpt lat="42.91881" lon="0.82936">
        <ele>1656.01</ele>
        <time>2016-04-10T10:35:01Z</time>
      </trkpt>
      <trkpt lat="42.91873" lon="0.82935">
        <ele>1657.45</ele>
        <time>2016-04-10T10:35:11Z</time>
      </trkpt>
      <trkpt lat="42.91866" lon="0.82931">
        <ele>1659.85</ele>
        <time>2016-04-10T10:35:25Z</time>
      </trkpt>
      <trkpt lat="42.9186" lon="0.8292">
        <ele>1660.33</ele>
        <time>2016-04-10T10:35:35Z</time>
      </trkpt>
      <trkpt lat="42.91853" lon="0.82912">
        <ele>1662.26</ele>
        <time>2016-04-10T10:35:47Z</time>
      </trkpt>
      <trkpt lat="42.91846" lon="0.82903">
        <ele>1663.7</ele>
        <time>2016-04-10T10:35:59Z</time>
      </trkpt>
      <trkpt lat="42.91839" lon="0.82895">
        <ele>1664.66</ele>
        <time>2016-04-10T10:36:11Z</time>
      </trkpt>
      <trkpt lat="42.91833" lon="0.82883">
        <ele>1665.14</ele>
        <time>2016-04-10T10:36:22Z</time>
      </trkpt>
      <trkpt lat="42.9183" lon="0.82872">
        <ele>1665.62</ele>
        <time>2016-04-10T10:36:31Z</time>
      </trkpt>
      <trkpt lat="42.91825" lon="0.82863">
        <ele>1666.1</ele>
        <time>2016-04-10T10:36:40Z</time>
      </trkpt>
      <trkpt lat="42.91819" lon="0.82853">
        <ele>1667.54</ele>
        <time>2016-04-10T10:36:50Z</time>
      </trkpt>
      <trkpt lat="42.91812" lon="0.82843">
        <ele>1668.51</ele>
        <time>2016-04-10T10:37:01Z</time>
      </trkpt>
      <trkpt lat="42.91805" lon="0.82833">
        <ele>1669.95</ele>
        <time>2016-04-10T10:37:11Z</time>
      </trkpt>
      <trkpt lat="42.91797" lon="0.82823">
        <ele>1671.39</ele>
        <time>2016-04-10T10:37:22Z</time>
      </trkpt>
      <trkpt lat="42.9179" lon="0.82813">
        <ele>1670.91</ele>
        <time>2016-04-10T10:37:33Z</time>
      </trkpt>
      <trkpt lat="42.91781" lon="0.82805">
        <ele>1671.39</ele>
        <time>2016-04-10T10:37:43Z</time>
      </trkpt>
      <trkpt lat="42.91773" lon="0.82797">
        <ele>1670.43</ele>
        <time>2016-04-10T10:37:53Z</time>
      </trkpt>
      <trkpt lat="42.91766" lon="0.82788">
        <ele>1669.95</ele>
        <time>2016-04-10T10:38:04Z</time>
      </trkpt>
      <trkpt lat="42.91756" lon="0.82788">
        <ele>1671.87</ele>
        <time>2016-04-10T10:38:14Z</time>
      </trkpt>
      <trkpt lat="42.91746" lon="0.82786">
        <ele>1672.35</ele>
        <time>2016-04-10T10:38:26Z</time>
      </trkpt>
      <trkpt lat="42.91735" lon="0.82782">
        <ele>1674.27</ele>
        <time>2016-04-10T10:38:39Z</time>
      </trkpt>
      <trkpt lat="42.91726" lon="0.82778">
        <ele>1676.2</ele>
        <time>2016-04-10T10:38:50Z</time>
      </trkpt>
      <trkpt lat="42.91718" lon="0.82778">
        <ele>1676.2</ele>
        <time>2016-04-10T10:39:07Z</time>
      </trkpt>
      <trkpt lat="42.9171" lon="0.82772">
        <ele>1674.75</ele>
        <time>2016-04-10T10:39:17Z</time>
      </trkpt>
      <trkpt lat="42.91719" lon="0.82778">
        <ele>1668.51</ele>
        <time>2016-04-10T10:56:03Z</time>
      </trkpt>
      <trkpt lat="42.91672" lon="0.82744">
        <ele>1667.06</ele>
        <time>2016-04-10T10:56:22Z</time>
      </trkpt>
      <trkpt lat="42.91684" lon="0.8275">
        <ele>1666.58</ele>
        <time>2016-04-10T10:56:35Z</time>
      </trkpt>
      <trkpt lat="42.91702" lon="0.82766">
        <ele>1668.99</ele>
        <time>2016-04-10T10:56:58Z</time>
      </trkpt>
      <trkpt lat="42.91714" lon="0.82773">
        <ele>1666.58</ele>
        <time>2016-04-10T10:57:23Z</time>
      </trkpt>
      <trkpt lat="42.91723" lon="0.82781">
        <ele>1667.06</ele>
        <time>2016-04-10T10:57:37Z</time>
      </trkpt>
      <trkpt lat="42.91737" lon="0.82789">
        <ele>1666.1</ele>
        <time>2016-04-10T10:57:55Z</time>
      </trkpt>
      <trkpt lat="42.91749" lon="0.82791">
        <ele>1663.7</ele>
        <time>2016-04-10T10:58:09Z</time>
      </trkpt>
      <trkpt lat="42.91763" lon="0.82791">
        <ele>1661.78</ele>
        <time>2016-04-10T10:58:24Z</time>
      </trkpt>
      <trkpt lat="42.91775" lon="0.82801">
        <ele>1660.81</ele>
        <time>2016-04-10T10:58:42Z</time>
      </trkpt>
      <trkpt lat="42.91784" lon="0.8281">
        <ele>1661.3</ele>
        <time>2016-04-10T10:58:55Z</time>
      </trkpt>
      <trkpt lat="42.91792" lon="0.82818">
        <ele>1660.81</ele>
        <time>2016-04-10T10:59:04Z</time>
      </trkpt>
      <trkpt lat="42.91801" lon="0.82825">
        <ele>1659.37</ele>
        <time>2016-04-10T10:59:16Z</time>
      </trkpt>
      <trkpt lat="42.91811" lon="0.82838">
        <ele>1658.89</ele>
        <time>2016-04-10T10:59:31Z</time>
      </trkpt>
      <trkpt lat="42.91821" lon="0.82851">
        <ele>1657.93</ele>
        <time>2016-04-10T10:59:49Z</time>
      </trkpt>
      <trkpt lat="42.91829" lon="0.82862">
        <ele>1656.97</ele>
        <time>2016-04-10T11:00:00Z</time>
      </trkpt>
      <trkpt lat="42.9184" lon="0.82881">
        <ele>1658.41</ele>
        <time>2016-04-10T11:00:23Z</time>
      </trkpt>
      <trkpt lat="42.91849" lon="0.82902">
        <ele>1656.97</ele>
        <time>2016-04-10T11:00:43Z</time>
      </trkpt>
      <trkpt lat="42.9186" lon="0.82918">
        <ele>1655.05</ele>
        <time>2016-04-10T11:01:00Z</time>
      </trkpt>
      <trkpt lat="42.91866" lon="0.8293">
        <ele>1652.64</ele>
        <time>2016-04-10T11:01:13Z</time>
      </trkpt>
      <trkpt lat="42.9187" lon="0.82942">
        <ele>1650.72</ele>
        <time>2016-04-10T11:01:24Z</time>
      </trkpt>
      <trkpt lat="42.91874" lon="0.82955">
        <ele>1650.24</ele>
        <time>2016-04-10T11:01:34Z</time>
      </trkpt>
      <trkpt lat="42.91879" lon="0.82966">
        <ele>1648.32</ele>
        <time>2016-04-10T11:01:44Z</time>
      </trkpt>
      <trkpt lat="42.91885" lon="0.82977">
        <ele>1644.95</ele>
        <time>2016-04-10T11:01:54Z</time>
      </trkpt>
      <trkpt lat="42.91891" lon="0.82986">
        <ele>1643.03</ele>
        <time>2016-04-10T11:02:05Z</time>
      </trkpt>
      <trkpt lat="42.91899" lon="0.82994">
        <ele>1641.11</ele>
        <time>2016-04-10T11:02:16Z</time>
      </trkpt>
      <trkpt lat="42.91907" lon="0.83001">
        <ele>1637.74</ele>
        <time>2016-04-10T11:02:28Z</time>
      </trkpt>
      <trkpt lat="42.91914" lon="0.8301">
        <ele>1636.3</ele>
        <time>2016-04-10T11:02:40Z</time>
      </trkpt>
      <trkpt lat="42.91921" lon="0.83019">
        <ele>1631.98</ele>
        <time>2016-04-10T11:02:51Z</time>
      </trkpt>
      <trkpt lat="42.91929" lon="0.83027">
        <ele>1626.21</ele>
        <time>2016-04-10T11:03:03Z</time>
      </trkpt>
      <trkpt lat="42.91936" lon="0.83034">
        <ele>1624.77</ele>
        <time>2016-04-10T11:03:14Z</time>
      </trkpt>
      <trkpt lat="42.9194" lon="0.83046">
        <ele>1622.84</ele>
        <time>2016-04-10T11:03:27Z</time>
      </trkpt>
      <trkpt lat="42.91944" lon="0.83056">
        <ele>1621.4</ele>
        <time>2016-04-10T11:03:43Z</time>
      </trkpt>
      <trkpt lat="42.91944" lon="0.83071">
        <ele>1621.4</ele>
        <time>2016-04-10T11:03:55Z</time>
      </trkpt>
      <trkpt lat="42.91943" lon="0.83084">
        <ele>1619.96</ele>
        <time>2016-04-10T11:04:06Z</time>
      </trkpt>
      <trkpt lat="42.91942" lon="0.83096">
        <ele>1619</ele>
        <time>2016-04-10T11:04:17Z</time>
      </trkpt>
      <trkpt lat="42.9194" lon="0.83107">
        <ele>1619.96</ele>
        <time>2016-04-10T11:04:29Z</time>
      </trkpt>
      <trkpt lat="42.91937" lon="0.83117">
        <ele>1621.4</ele>
        <time>2016-04-10T11:04:40Z</time>
      </trkpt>
      <trkpt lat="42.91939" lon="0.83123">
        <ele>1621.4</ele>
        <time>2016-04-10T11:04:58Z</time>
      </trkpt>
      <trkpt lat="42.91935" lon="0.83126">
        <ele>1622.36</ele>
        <time>2016-04-10T11:07:01Z</time>
      </trkpt>
      <trkpt lat="42.91935" lon="0.83124">
        <ele>1620.44</ele>
        <time>2016-04-10T11:07:33Z</time>
      </trkpt>
      <trkpt lat="42.91935" lon="0.83125">
        <ele>1631.49</ele>
        <time>2016-04-10T12:15:59Z</time>
      </trkpt>
      <trkpt lat="42.91942" lon="0.83139">
        <ele>1628.13</ele>
        <time>2016-04-10T12:18:48Z</time>
      </trkpt>
      <trkpt lat="42.91949" lon="0.8315">
        <ele>1627.17</ele>
        <time>2016-04-10T12:19:01Z</time>
      </trkpt>
      <trkpt lat="42.91956" lon="0.83159">
        <ele>1627.65</ele>
        <time>2016-04-10T12:19:10Z</time>
      </trkpt>
      <trkpt lat="42.9196" lon="0.83169">
        <ele>1627.17</ele>
        <time>2016-04-10T12:19:18Z</time>
      </trkpt>
      <trkpt lat="42.91964" lon="0.83181">
        <ele>1625.25</ele>
        <time>2016-04-10T12:19:26Z</time>
      </trkpt>
      <trkpt lat="42.91969" lon="0.83194">
        <ele>1622.36</ele>
        <time>2016-04-10T12:19:35Z</time>
      </trkpt>
      <trkpt lat="42.91973" lon="0.83205">
        <ele>1622.36</ele>
        <time>2016-04-10T12:19:44Z</time>
      </trkpt>
      <trkpt lat="42.91977" lon="0.83218">
        <ele>1620.44</ele>
        <time>2016-04-10T12:19:53Z</time>
      </trkpt>
      <trkpt lat="42.91976" lon="0.83231">
        <ele>1618.52</ele>
        <time>2016-04-10T12:20:01Z</time>
      </trkpt>
      <trkpt lat="42.9198" lon="0.83242">
        <ele>1617.56</ele>
        <time>2016-04-10T12:20:10Z</time>
      </trkpt>
      <trkpt lat="42.91987" lon="0.83251">
        <ele>1617.56</ele>
        <time>2016-04-10T12:20:19Z</time>
      </trkpt>
      <trkpt lat="42.91994" lon="0.8326">
        <ele>1617.07</ele>
        <time>2016-04-10T12:20:27Z</time>
      </trkpt>
      <trkpt lat="42.92002" lon="0.8327">
        <ele>1617.56</ele>
        <time>2016-04-10T12:20:36Z</time>
      </trkpt>
      <trkpt lat="42.92009" lon="0.83279">
        <ele>1615.15</ele>
        <time>2016-04-10T12:20:44Z</time>
      </trkpt>
      <trkpt lat="42.92013" lon="0.8329">
        <ele>1616.11</ele>
        <time>2016-04-10T12:20:53Z</time>
      </trkpt>
      <trkpt lat="42.92015" lon="0.83304">
        <ele>1613.71</ele>
        <time>2016-04-10T12:21:03Z</time>
      </trkpt>
      <trkpt lat="42.92019" lon="0.83315">
        <ele>1610.35</ele>
        <time>2016-04-10T12:21:12Z</time>
      </trkpt>
      <trkpt lat="42.92023" lon="0.83327">
        <ele>1608.9</ele>
        <time>2016-04-10T12:21:21Z</time>
      </trkpt>
      <trkpt lat="42.92026" lon="0.83339">
        <ele>1606.5</ele>
        <time>2016-04-10T12:21:30Z</time>
      </trkpt>
      <trkpt lat="42.92031" lon="0.83349">
        <ele>1605.06</ele>
        <time>2016-04-10T12:21:38Z</time>
      </trkpt>
      <trkpt lat="42.92037" lon="0.8336">
        <ele>1604.1</ele>
        <time>2016-04-10T12:21:47Z</time>
      </trkpt>
      <trkpt lat="42.9204" lon="0.83372">
        <ele>1601.69</ele>
        <time>2016-04-10T12:21:57Z</time>
      </trkpt>
      <trkpt lat="42.92039" lon="0.83386">
        <ele>1599.77</ele>
        <time>2016-04-10T12:22:08Z</time>
      </trkpt>
      <trkpt lat="42.9204" lon="0.83399">
        <ele>1597.37</ele>
        <time>2016-04-10T12:22:19Z</time>
      </trkpt>
      <trkpt lat="42.92044" lon="0.8341">
        <ele>1594.96</ele>
        <time>2016-04-10T12:22:29Z</time>
      </trkpt>
      <trkpt lat="42.92049" lon="0.83421">
        <ele>1590.16</ele>
        <time>2016-04-10T12:22:39Z</time>
      </trkpt>
      <trkpt lat="42.92049" lon="0.83435">
        <ele>1586.31</ele>
        <time>2016-04-10T12:22:50Z</time>
      </trkpt>
      <trkpt lat="42.92051" lon="0.83449">
        <ele>1581.51</ele>
        <time>2016-04-10T12:23:02Z</time>
      </trkpt>
      <trkpt lat="42.92058" lon="0.83459">
        <ele>1577.66</ele>
        <time>2016-04-10T12:23:11Z</time>
      </trkpt>
      <trkpt lat="42.92064" lon="0.83471">
        <ele>1571.89</ele>
        <time>2016-04-10T12:23:21Z</time>
      </trkpt>
      <trkpt lat="42.92068" lon="0.83483">
        <ele>1566.61</ele>
        <time>2016-04-10T12:23:31Z</time>
      </trkpt>
      <trkpt lat="42.92072" lon="0.83496">
        <ele>1562.28</ele>
        <time>2016-04-10T12:23:44Z</time>
      </trkpt>
      <trkpt lat="42.92075" lon="0.83508">
        <ele>1559.4</ele>
        <time>2016-04-10T12:23:58Z</time>
      </trkpt>
      <trkpt lat="42.92076" lon="0.83519">
        <ele>1556.51</ele>
        <time>2016-04-10T12:27:03Z</time>
      </trkpt>
      <trkpt lat="42.9208" lon="0.83531">
        <ele>1553.15</ele>
        <time>2016-04-10T12:27:21Z</time>
      </trkpt>
      <trkpt lat="42.92081" lon="0.83545">
        <ele>1550.26</ele>
        <time>2016-04-10T12:27:35Z</time>
      </trkpt>
      <trkpt lat="42.92083" lon="0.83558">
        <ele>1551.22</ele>
        <time>2016-04-10T12:27:47Z</time>
      </trkpt>
      <trkpt lat="42.92086" lon="0.8357">
        <ele>1549.3</ele>
        <time>2016-04-10T12:28:00Z</time>
      </trkpt>
      <trkpt lat="42.92089" lon="0.83584">
        <ele>1546.9</ele>
        <time>2016-04-10T12:28:14Z</time>
      </trkpt>
      <trkpt lat="42.9209" lon="0.83596">
        <ele>1545.46</ele>
        <time>2016-04-10T12:28:25Z</time>
      </trkpt>
      <trkpt lat="42.92096" lon="0.83607">
        <ele>1545.46</ele>
        <time>2016-04-10T12:28:36Z</time>
      </trkpt>
      <trkpt lat="42.92097" lon="0.83621">
        <ele>1543.53</ele>
        <time>2016-04-10T12:28:46Z</time>
      </trkpt>
      <trkpt lat="42.92102" lon="0.83632">
        <ele>1540.17</ele>
        <time>2016-04-10T12:28:57Z</time>
      </trkpt>
      <trkpt lat="42.9211" lon="0.83638">
        <ele>1536.8</ele>
        <time>2016-04-10T12:29:06Z</time>
      </trkpt>
      <trkpt lat="42.92116" lon="0.83648">
        <ele>1536.32</ele>
        <time>2016-04-10T12:29:16Z</time>
      </trkpt>
      <trkpt lat="42.9212" lon="0.8366">
        <ele>1532</ele>
        <time>2016-04-10T12:29:26Z</time>
      </trkpt>
      <trkpt lat="42.92123" lon="0.83674">
        <ele>1528.15</ele>
        <time>2016-04-10T12:29:36Z</time>
      </trkpt>
      <trkpt lat="42.92124" lon="0.83689">
        <ele>1524.79</ele>
        <time>2016-04-10T12:29:47Z</time>
      </trkpt>
      <trkpt lat="42.92126" lon="0.83704">
        <ele>1519.5</ele>
        <time>2016-04-10T12:30:02Z</time>
      </trkpt>
      <trkpt lat="42.92128" lon="0.83719">
        <ele>1513.73</ele>
        <time>2016-04-10T12:30:16Z</time>
      </trkpt>
      <trkpt lat="42.92129" lon="0.83735">
        <ele>1512.77</ele>
        <time>2016-04-10T12:30:30Z</time>
      </trkpt>
      <trkpt lat="42.92134" lon="0.83749">
        <ele>1513.25</ele>
        <time>2016-04-10T12:30:42Z</time>
      </trkpt>
      <trkpt lat="42.9214" lon="0.83761">
        <ele>1515.18</ele>
        <time>2016-04-10T12:31:03Z</time>
      </trkpt>
      <trkpt lat="42.92143" lon="0.83773">
        <ele>1511.33</ele>
        <time>2016-04-10T12:31:15Z</time>
      </trkpt>
      <trkpt lat="42.92142" lon="0.83785">
        <ele>1511.81</ele>
        <time>2016-04-10T12:31:26Z</time>
      </trkpt>
      <trkpt lat="42.92142" lon="0.83799">
        <ele>1510.37</ele>
        <time>2016-04-10T12:31:37Z</time>
      </trkpt>
      <trkpt lat="42.92147" lon="0.83811">
        <ele>1509.41</ele>
        <time>2016-04-10T12:31:47Z</time>
      </trkpt>
      <trkpt lat="42.92153" lon="0.83822">
        <ele>1506.04</ele>
        <time>2016-04-10T12:31:58Z</time>
      </trkpt>
      <trkpt lat="42.92156" lon="0.83834">
        <ele>1508.45</ele>
        <time>2016-04-10T12:32:14Z</time>
      </trkpt>
      <trkpt lat="42.9216" lon="0.83847">
        <ele>1504.12</ele>
        <time>2016-04-10T12:32:26Z</time>
      </trkpt>
      <trkpt lat="42.92163" lon="0.83861">
        <ele>1503.16</ele>
        <time>2016-04-10T12:32:37Z</time>
      </trkpt>
      <trkpt lat="42.92166" lon="0.83874">
        <ele>1501.24</ele>
        <time>2016-04-10T12:32:47Z</time>
      </trkpt>
      <trkpt lat="42.92168" lon="0.83887">
        <ele>1498.35</ele>
        <time>2016-04-10T12:32:57Z</time>
      </trkpt>
      <trkpt lat="42.92171" lon="0.83901">
        <ele>1497.87</ele>
        <time>2016-04-10T12:33:09Z</time>
      </trkpt>
      <trkpt lat="42.92175" lon="0.83914">
        <ele>1495.47</ele>
        <time>2016-04-10T12:33:32Z</time>
      </trkpt>
      <trkpt lat="42.92181" lon="0.83925">
        <ele>1492.1</ele>
        <time>2016-04-10T12:33:45Z</time>
      </trkpt>
      <trkpt lat="42.92188" lon="0.83934">
        <ele>1489.7</ele>
        <time>2016-04-10T12:33:56Z</time>
      </trkpt>
      <trkpt lat="42.92194" lon="0.83944">
        <ele>1487.3</ele>
        <time>2016-04-10T12:34:07Z</time>
      </trkpt>
      <trkpt lat="42.92201" lon="0.83954">
        <ele>1484.89</ele>
        <time>2016-04-10T12:34:18Z</time>
      </trkpt>
      <trkpt lat="42.92203" lon="0.83965">
        <ele>1483.93</ele>
        <time>2016-04-10T12:34:29Z</time>
      </trkpt>
      <trkpt lat="42.92209" lon="0.83976">
        <ele>1482.49</ele>
        <time>2016-04-10T12:34:40Z</time>
      </trkpt>
      <trkpt lat="42.92215" lon="0.83987">
        <ele>1481.05</ele>
        <time>2016-04-10T12:37:11Z</time>
      </trkpt>
      <trkpt lat="42.92221" lon="0.83997">
        <ele>1479.13</ele>
        <time>2016-04-10T12:37:22Z</time>
      </trkpt>
      <trkpt lat="42.92227" lon="0.84007">
        <ele>1477.68</ele>
        <time>2016-04-10T12:37:34Z</time>
      </trkpt>
      <trkpt lat="42.92231" lon="0.8402">
        <ele>1475.76</ele>
        <time>2016-04-10T12:37:45Z</time>
      </trkpt>
      <trkpt lat="42.92235" lon="0.84032">
        <ele>1474.32</ele>
        <time>2016-04-10T12:37:56Z</time>
      </trkpt>
      <trkpt lat="42.92241" lon="0.84043">
        <ele>1471.92</ele>
        <time>2016-04-10T12:38:08Z</time>
      </trkpt>
      <trkpt lat="42.92247" lon="0.84052">
        <ele>1468.07</ele>
        <time>2016-04-10T12:38:19Z</time>
      </trkpt>
      <trkpt lat="42.92255" lon="0.84064">
        <ele>1462.78</ele>
        <time>2016-04-10T12:38:31Z</time>
      </trkpt>
      <trkpt lat="42.92261" lon="0.84075">
        <ele>1460.86</ele>
        <time>2016-04-10T12:38:47Z</time>
      </trkpt>
      <trkpt lat="42.9227" lon="0.84084">
        <ele>1460.86</ele>
        <time>2016-04-10T12:39:12Z</time>
      </trkpt>
      <trkpt lat="42.92279" lon="0.84088">
        <ele>1460.86</ele>
        <time>2016-04-10T12:39:23Z</time>
      </trkpt>
      <trkpt lat="42.9229" lon="0.84086">
        <ele>1460.38</ele>
        <time>2016-04-10T12:39:34Z</time>
      </trkpt>
      <trkpt lat="42.92299" lon="0.84088">
        <ele>1460.38</ele>
        <time>2016-04-10T12:39:45Z</time>
      </trkpt>
      <trkpt lat="42.92308" lon="0.84092">
        <ele>1460.86</ele>
        <time>2016-04-10T12:39:56Z</time>
      </trkpt>
      <trkpt lat="42.92318" lon="0.84087">
        <ele>1460.86</ele>
        <time>2016-04-10T12:40:07Z</time>
      </trkpt>
      <trkpt lat="42.92328" lon="0.8408">
        <ele>1461.34</ele>
        <time>2016-04-10T12:40:18Z</time>
      </trkpt>
      <trkpt lat="42.92336" lon="0.84071">
        <ele>1461.34</ele>
        <time>2016-04-10T12:40:31Z</time>
      </trkpt>
      <trkpt lat="42.92346" lon="0.84064">
        <ele>1459.42</ele>
        <time>2016-04-10T12:40:45Z</time>
      </trkpt>
      <trkpt lat="42.92353" lon="0.84055">
        <ele>1458.46</ele>
        <time>2016-04-10T12:41:05Z</time>
      </trkpt>
      <trkpt lat="42.92361" lon="0.84048">
        <ele>1455.09</ele>
        <time>2016-04-10T12:41:19Z</time>
      </trkpt>
      <trkpt lat="42.92371" lon="0.84041">
        <ele>1453.17</ele>
        <time>2016-04-10T12:41:47Z</time>
      </trkpt>
      <trkpt lat="42.92383" lon="0.84023">
        <ele>1446.92</ele>
        <time>2016-04-10T12:42:31Z</time>
      </trkpt>
      <trkpt lat="42.92422" lon="0.83995">
        <ele>1434.42</ele>
        <time>2016-04-10T12:43:51Z</time>
      </trkpt>
      <trkpt lat="42.92432" lon="0.84">
        <ele>1430.1</ele>
        <time>2016-04-10T12:44:47Z</time>
      </trkpt>
      <trkpt lat="42.92432" lon="0.84029">
        <ele>1434.91</ele>
        <time>2016-04-10T12:45:23Z</time>
      </trkpt>
      <trkpt lat="42.92435" lon="0.84053">
        <ele>1436.83</ele>
        <time>2016-04-10T12:45:46Z</time>
      </trkpt>
      <trkpt lat="42.92442" lon="0.84073">
        <ele>1439.71</ele>
        <time>2016-04-10T12:46:13Z</time>
      </trkpt>
      <trkpt lat="42.92448" lon="0.84111">
        <ele>1441.15</ele>
        <time>2016-04-10T12:46:47Z</time>
      </trkpt>
      <trkpt lat="42.92452" lon="0.84148">
        <ele>1440.67</ele>
        <time>2016-04-10T12:47:24Z</time>
      </trkpt>
      <trkpt lat="42.92455" lon="0.84176">
        <ele>1439.71</ele>
        <time>2016-04-10T12:47:54Z</time>
      </trkpt>
      <trkpt lat="42.92462" lon="0.84196">
        <ele>1441.15</ele>
        <time>2016-04-10T12:53:02Z</time>
      </trkpt>
      <trkpt lat="42.92462" lon="0.84223">
        <ele>1441.63</ele>
        <time>2016-04-10T12:53:22Z</time>
      </trkpt>
      <trkpt lat="42.92465" lon="0.84241">
        <ele>1441.63</ele>
        <time>2016-04-10T12:53:40Z</time>
      </trkpt>
      <trkpt lat="42.92468" lon="0.84263">
        <ele>1442.6</ele>
        <time>2016-04-10T12:54:07Z</time>
      </trkpt>
      <trkpt lat="42.92471" lon="0.84291">
        <ele>1445</ele>
        <time>2016-04-10T12:54:41Z</time>
      </trkpt>
      <trkpt lat="42.92477" lon="0.84314">
        <ele>1446.92</ele>
        <time>2016-04-10T12:55:04Z</time>
      </trkpt>
      <trkpt lat="42.92483" lon="0.84335">
        <ele>1446.92</ele>
        <time>2016-04-10T12:55:22Z</time>
      </trkpt>
      <trkpt lat="42.92498" lon="0.84356">
        <ele>1440.67</ele>
        <time>2016-04-10T12:56:15Z</time>
      </trkpt>
      <trkpt lat="42.92513" lon="0.84352">
        <ele>1436.35</ele>
        <time>2016-04-10T12:56:43Z</time>
      </trkpt>
      <trkpt lat="42.9253" lon="0.84368">
        <ele>1428.66</ele>
        <time>2016-04-10T12:57:18Z</time>
      </trkpt>
      <trkpt lat="42.92547" lon="0.84385">
        <ele>1425.77</ele>
        <time>2016-04-10T12:57:42Z</time>
      </trkpt>
      <trkpt lat="42.92561" lon="0.84379">
        <ele>1424.33</ele>
        <time>2016-04-10T12:58:28Z</time>
      </trkpt>
      <trkpt lat="42.92568" lon="0.84365">
        <ele>1420.97</ele>
        <time>2016-04-10T12:58:44Z</time>
      </trkpt>
      <trkpt lat="42.92572" lon="0.84334">
        <ele>1415.2</ele>
        <time>2016-04-10T12:59:17Z</time>
      </trkpt>
      <trkpt lat="42.9258" lon="0.84318">
        <ele>1410.87</ele>
        <time>2016-04-10T12:59:37Z</time>
      </trkpt>
      <trkpt lat="42.92587" lon="0.84308">
        <ele>1407.51</ele>
        <time>2016-04-10T12:59:52Z</time>
      </trkpt>
      <trkpt lat="42.92591" lon="0.84293">
        <ele>1404.14</ele>
        <time>2016-04-10T13:00:10Z</time>
      </trkpt>
      <trkpt lat="42.92595" lon="0.84274">
        <ele>1400.78</ele>
        <time>2016-04-10T13:00:36Z</time>
      </trkpt>
      <trkpt lat="42.92597" lon="0.84255">
        <ele>1396.93</ele>
        <time>2016-04-10T13:00:58Z</time>
      </trkpt>
      <trkpt lat="42.92614" lon="0.84236">
        <ele>1391.17</ele>
        <time>2016-04-10T13:03:11Z</time>
      </trkpt>
      <trkpt lat="42.92629" lon="0.84232">
        <ele>1384.44</ele>
        <time>2016-04-10T13:03:40Z</time>
      </trkpt>
      <trkpt lat="42.92651" lon="0.84222">
        <ele>1375.78</ele>
        <time>2016-04-10T13:10:21Z</time>
      </trkpt>
      <trkpt lat="42.92678" lon="0.84223">
        <ele>1366.17</ele>
        <time>2016-04-10T13:11:11Z</time>
      </trkpt>
      <trkpt lat="42.92691" lon="0.84218">
        <ele>1362.33</ele>
        <time>2016-04-10T13:11:27Z</time>
      </trkpt>
      <trkpt lat="42.92702" lon="0.84211">
        <ele>1359.44</ele>
        <time>2016-04-10T13:11:42Z</time>
      </trkpt>
      <trkpt lat="42.92711" lon="0.84203">
        <ele>1357.52</ele>
        <time>2016-04-10T13:12:11Z</time>
      </trkpt>
      <trkpt lat="42.92722" lon="0.842">
        <ele>1354.15</ele>
        <time>2016-04-10T13:12:24Z</time>
      </trkpt>
      <trkpt lat="42.9273" lon="0.8419">
        <ele>1351.75</ele>
        <time>2016-04-10T13:12:39Z</time>
      </trkpt>
      <trkpt lat="42.9274" lon="0.84175">
        <ele>1346.94</ele>
        <time>2016-04-10T13:13:03Z</time>
      </trkpt>
      <trkpt lat="42.92758" lon="0.84155">
        <ele>1338.77</ele>
        <time>2016-04-10T13:14:11Z</time>
      </trkpt>
      <trkpt lat="42.92774" lon="0.84148">
        <ele>1333.01</ele>
        <time>2016-04-10T13:14:33Z</time>
      </trkpt>
      <trkpt lat="42.92794" lon="0.84134">
        <ele>1322.91</ele>
        <time>2016-04-10T13:15:11Z</time>
      </trkpt>
      <trkpt lat="42.92811" lon="0.84134">
        <ele>1316.66</ele>
        <time>2016-04-10T13:16:17Z</time>
      </trkpt>
      <trkpt lat="42.92834" lon="0.84149">
        <ele>1312.82</ele>
        <time>2016-04-10T13:16:51Z</time>
      </trkpt>
      <trkpt lat="42.92853" lon="0.84156">
        <ele>1308.97</ele>
        <time>2016-04-10T13:17:14Z</time>
      </trkpt>
      <trkpt lat="42.92873" lon="0.84154">
        <ele>1304.65</ele>
        <time>2016-04-10T13:19:45Z</time>
      </trkpt>
      <trkpt lat="42.929" lon="0.84156">
        <ele>1298.88</ele>
        <time>2016-04-10T13:20:30Z</time>
      </trkpt>
      <trkpt lat="42.92915" lon="0.84155">
        <ele>1294.07</ele>
        <time>2016-04-10T13:20:47Z</time>
      </trkpt>
      <trkpt lat="42.92929" lon="0.84157">
        <ele>1290.23</ele>
        <time>2016-04-10T13:21:08Z</time>
      </trkpt>
      <trkpt lat="42.92945" lon="0.84159">
        <ele>1286.38</ele>
        <time>2016-04-10T13:21:30Z</time>
      </trkpt>
      <trkpt lat="42.9296" lon="0.84161">
        <ele>1283.02</ele>
        <time>2016-04-10T13:21:46Z</time>
      </trkpt>
      <trkpt lat="42.92973" lon="0.84161">
        <ele>1280.61</ele>
        <time>2016-04-10T13:22:03Z</time>
      </trkpt>
      <trkpt lat="42.92984" lon="0.84168">
        <ele>1274.85</ele>
        <time>2016-04-10T13:22:23Z</time>
      </trkpt>
      <trkpt lat="42.92996" lon="0.84185">
        <ele>1268.6</ele>
        <time>2016-04-10T13:22:48Z</time>
      </trkpt>
      <trkpt lat="42.93013" lon="0.84198">
        <ele>1262.35</ele>
        <time>2016-04-10T13:23:17Z</time>
      </trkpt>
      <trkpt lat="42.93039" lon="0.84206">
        <ele>1254.66</ele>
        <time>2016-04-10T13:23:53Z</time>
      </trkpt>
      <trkpt lat="42.93061" lon="0.84197">
        <ele>1248.89</ele>
        <time>2016-04-10T13:24:22Z</time>
      </trkpt>
      <trkpt lat="42.9307" lon="0.84179">
        <ele>1244.56</ele>
        <time>2016-04-10T13:24:44Z</time>
      </trkpt>
      <trkpt lat="42.9308" lon="0.84168">
        <ele>1240.72</ele>
        <time>2016-04-10T13:25:04Z</time>
      </trkpt>
      <trkpt lat="42.93085" lon="0.84175">
        <ele>1237.83</ele>
        <time>2016-04-10T13:33:24Z</time>
      </trkpt>
      <trkpt lat="42.93089" lon="0.84194">
        <ele>1234.47</ele>
        <time>2016-04-10T13:33:43Z</time>
      </trkpt>
      <trkpt lat="42.93092" lon="0.84216">
        <ele>1229.66</ele>
        <time>2016-04-10T13:34:04Z</time>
      </trkpt>
      <trkpt lat="42.93103" lon="0.84231">
        <ele>1224.38</ele>
        <time>2016-04-10T13:34:27Z</time>
      </trkpt>
      <trkpt lat="42.93117" lon="0.84237">
        <ele>1217.17</ele>
        <time>2016-04-10T13:34:57Z</time>
      </trkpt>
      <trkpt lat="42.93134" lon="0.84238">
        <ele>1211.88</ele>
        <time>2016-04-10T13:35:20Z</time>
      </trkpt>
      <trkpt lat="42.93156" lon="0.84243">
        <ele>1208.51</ele>
        <time>2016-04-10T13:35:55Z</time>
      </trkpt>
      <trkpt lat="42.93169" lon="0.84245">
        <ele>1208.03</ele>
        <time>2016-04-10T13:36:11Z</time>
      </trkpt>
      <trkpt lat="42.9318" lon="0.84254">
        <ele>1208.51</ele>
        <time>2016-04-10T13:36:27Z</time>
      </trkpt>
      <trkpt lat="42.93184" lon="0.84279">
        <ele>1209</ele>
        <time>2016-04-10T13:36:44Z</time>
      </trkpt>
      <trkpt lat="42.93194" lon="0.8429">
        <ele>1209.48</ele>
        <time>2016-04-10T13:37:00Z</time>
      </trkpt>
      <trkpt lat="42.93207" lon="0.84306">
        <ele>1211.4</ele>
        <time>2016-04-10T13:37:21Z</time>
      </trkpt>
      <trkpt lat="42.93215" lon="0.84322">
        <ele>1212.84</ele>
        <time>2016-04-10T13:37:36Z</time>
      </trkpt>
      <trkpt lat="42.93225" lon="0.84335">
        <ele>1212.84</ele>
        <time>2016-04-10T13:37:49Z</time>
      </trkpt>
      <trkpt lat="42.93234" lon="0.84344">
        <ele>1212.84</ele>
        <time>2016-04-10T13:38:00Z</time>
      </trkpt>
      <trkpt lat="42.93243" lon="0.84355">
        <ele>1211.88</ele>
        <time>2016-04-10T13:38:11Z</time>
      </trkpt>
      <trkpt lat="42.93258" lon="0.84362">
        <ele>1212.36</ele>
        <time>2016-04-10T13:38:27Z</time>
      </trkpt>
      <trkpt lat="42.93267" lon="0.84371">
        <ele>1213.8</ele>
        <time>2016-04-10T13:38:55Z</time>
      </trkpt>
      <trkpt lat="42.9328" lon="0.84381">
        <ele>1215.72</ele>
        <time>2016-04-10T13:39:13Z</time>
      </trkpt>
      <trkpt lat="42.93293" lon="0.84393">
        <ele>1215.72</ele>
        <time>2016-04-10T13:39:31Z</time>
      </trkpt>
      <trkpt lat="42.93309" lon="0.84402">
        <ele>1217.17</ele>
        <time>2016-04-10T13:39:52Z</time>
      </trkpt>
      <trkpt lat="42.93325" lon="0.84422">
        <ele>1218.13</ele>
        <time>2016-04-10T13:40:12Z</time>
      </trkpt>
      <trkpt lat="42.93334" lon="0.84438">
        <ele>1219.09</ele>
        <time>2016-04-10T13:40:29Z</time>
      </trkpt>
      <trkpt lat="42.93342" lon="0.84456">
        <ele>1220.53</ele>
        <time>2016-04-10T13:40:44Z</time>
      </trkpt>
      <trkpt lat="42.9335" lon="0.84472">
        <ele>1222.45</ele>
        <time>2016-04-10T13:41:01Z</time>
      </trkpt>
      <trkpt lat="42.9336" lon="0.84486">
        <ele>1223.42</ele>
        <time>2016-04-10T13:41:15Z</time>
      </trkpt>
      <trkpt lat="42.9337" lon="0.84504">
        <ele>1224.38</ele>
        <time>2016-04-10T13:41:31Z</time>
      </trkpt>
      <trkpt lat="42.93377" lon="0.84521">
        <ele>1224.38</ele>
        <time>2016-04-10T13:41:44Z</time>
      </trkpt>
      <trkpt lat="42.93381" lon="0.84538">
        <ele>1224.38</ele>
        <time>2016-04-10T13:41:56Z</time>
      </trkpt>
      <trkpt lat="42.93387" lon="0.84555">
        <ele>1224.86</ele>
        <time>2016-04-10T13:42:08Z</time>
      </trkpt>
      <trkpt lat="42.93392" lon="0.8457">
        <ele>1224.86</ele>
        <time>2016-04-10T13:42:20Z</time>
      </trkpt>
      <trkpt lat="42.934" lon="0.84585">
        <ele>1225.34</ele>
        <time>2016-04-10T13:42:33Z</time>
      </trkpt>
      <trkpt lat="42.93412" lon="0.84592">
        <ele>1223.9</ele>
        <time>2016-04-10T13:42:50Z</time>
      </trkpt>
      <trkpt lat="42.93426" lon="0.84593">
        <ele>1222.93</ele>
        <time>2016-04-10T13:43:07Z</time>
      </trkpt>
      <trkpt lat="42.93439" lon="0.846">
        <ele>1222.93</ele>
        <time>2016-04-10T13:43:24Z</time>
      </trkpt>
      <trkpt lat="42.93455" lon="0.84606">
        <ele>1222.45</ele>
        <time>2016-04-10T13:43:37Z</time>
      </trkpt>
      <trkpt lat="42.93465" lon="0.84621">
        <ele>1220.05</ele>
        <time>2016-04-10T13:43:53Z</time>
      </trkpt>
      <trkpt lat="42.93478" lon="0.84644">
        <ele>1217.17</ele>
        <time>2016-04-10T13:44:13Z</time>
      </trkpt>
      <trkpt lat="42.93487" lon="0.84665">
        <ele>1215.24</ele>
        <time>2016-04-10T13:44:29Z</time>
      </trkpt>
      <trkpt lat="42.93494" lon="0.84686">
        <ele>1214.76</ele>
        <time>2016-04-10T13:44:44Z</time>
      </trkpt>
      <trkpt lat="42.93499" lon="0.84706">
        <ele>1212.84</ele>
        <time>2016-04-10T13:44:58Z</time>
      </trkpt>
      <trkpt lat="42.93507" lon="0.84727">
        <ele>1212.36</ele>
        <time>2016-04-10T13:45:11Z</time>
      </trkpt>
      <trkpt lat="42.93513" lon="0.84742">
        <ele>1211.4</ele>
        <time>2016-04-10T13:45:21Z</time>
      </trkpt>
      <trkpt lat="42.93518" lon="0.84757">
        <ele>1210.44</ele>
        <time>2016-04-10T13:45:31Z</time>
      </trkpt>
      <trkpt lat="42.93524" lon="0.84772">
        <ele>1209.96</ele>
        <time>2016-04-10T13:45:43Z</time>
      </trkpt>
      <trkpt lat="42.93529" lon="0.84791">
        <ele>1209.48</ele>
        <time>2016-04-10T13:45:55Z</time>
      </trkpt>
      <trkpt lat="42.93533" lon="0.84809">
        <ele>1207.55</ele>
        <time>2016-04-10T13:46:08Z</time>
      </trkpt>
      <trkpt lat="42.93541" lon="0.84845">
        <ele>1207.55</ele>
        <time>2016-04-10T13:51:56Z</time>
      </trkpt>
      <trkpt lat="42.93552" lon="0.84856">
        <ele>1205.15</ele>
        <time>2016-04-10T13:54:59Z</time>
      </trkpt>
      <trkpt lat="42.93562" lon="0.84878">
        <ele>1201.3</ele>
        <time>2016-04-10T13:55:59Z</time>
      </trkpt>
      <trkpt lat="42.93574" lon="0.84892">
        <ele>1197.94</ele>
        <time>2016-04-10T13:56:20Z</time>
      </trkpt>
      <trkpt lat="42.9358" lon="0.84912">
        <ele>1196.02</ele>
        <time>2016-04-10T13:56:34Z</time>
      </trkpt>
      <trkpt lat="42.93586" lon="0.84937">
        <ele>1194.09</ele>
        <time>2016-04-10T13:56:50Z</time>
      </trkpt>
      <trkpt lat="42.936" lon="0.84956">
        <ele>1191.69</ele>
        <time>2016-04-10T13:57:36Z</time>
      </trkpt>
      <trkpt lat="42.93611" lon="0.8497">
        <ele>1187.85</ele>
        <time>2016-04-10T13:58:21Z</time>
      </trkpt>
      <trkpt lat="42.93639" lon="0.84979">
        <ele>1179.19</ele>
        <time>2016-04-10T13:59:14Z</time>
      </trkpt>
      <trkpt lat="42.93687" lon="0.84996">
        <ele>1163.33</ele>
        <time>2016-04-10T14:00:27Z</time>
      </trkpt>
      <trkpt lat="42.93706" lon="0.8501">
        <ele>1158.53</ele>
        <time>2016-04-10T14:00:51Z</time>
      </trkpt>
      <trkpt lat="42.9372" lon="0.85026">
        <ele>1155.16</ele>
        <time>2016-04-10T14:02:36Z</time>
      </trkpt>
      <trkpt lat="42.93729" lon="0.8504">
        <ele>1152.28</ele>
        <time>2016-04-10T14:02:56Z</time>
      </trkpt>
      <trkpt lat="42.93738" lon="0.85055">
        <ele>1147.95</ele>
        <time>2016-04-10T14:03:20Z</time>
      </trkpt>
      <trkpt lat="42.93755" lon="0.85064">
        <ele>1146.03</ele>
        <time>2016-04-10T14:03:41Z</time>
      </trkpt>
      <trkpt lat="42.93769" lon="0.85074">
        <ele>1143.63</ele>
        <time>2016-04-10T14:04:01Z</time>
      </trkpt>
      <trkpt lat="42.93799" lon="0.85084">
        <ele>1139.78</ele>
        <time>2016-04-10T14:04:39Z</time>
      </trkpt>
      <trkpt lat="42.93813" lon="0.85104">
        <ele>1137.86</ele>
        <time>2016-04-10T14:04:58Z</time>
      </trkpt>
      <trkpt lat="42.93823" lon="0.8512">
        <ele>1134.97</ele>
        <time>2016-04-10T14:05:16Z</time>
      </trkpt>
      <trkpt lat="42.9384" lon="0.85133">
        <ele>1131.13</ele>
        <time>2016-04-10T14:05:41Z</time>
      </trkpt>
      <trkpt lat="42.93857" lon="0.85143">
        <ele>1128.73</ele>
        <time>2016-04-10T14:05:54Z</time>
      </trkpt>
      <trkpt lat="42.93875" lon="0.85158">
        <ele>1126.32</ele>
        <time>2016-04-10T14:06:22Z</time>
      </trkpt>
      <trkpt lat="42.93888" lon="0.85175">
        <ele>1121.03</ele>
        <time>2016-04-10T14:06:53Z</time>
      </trkpt>
      <trkpt lat="42.93908" lon="0.85188">
        <ele>1115.75</ele>
        <time>2016-04-10T14:07:24Z</time>
      </trkpt>
      <trkpt lat="42.9392" lon="0.85198">
        <ele>1113.34</ele>
        <time>2016-04-10T14:07:41Z</time>
      </trkpt>
      <trkpt lat="42.93933" lon="0.85204">
        <ele>1111.42</ele>
        <time>2016-04-10T14:07:56Z</time>
      </trkpt>
      <trkpt lat="42.93945" lon="0.85209">
        <ele>1109.5</ele>
        <time>2016-04-10T14:08:10Z</time>
      </trkpt>
      <trkpt lat="42.9396" lon="0.85212">
        <ele>1108.06</ele>
        <time>2016-04-10T14:08:23Z</time>
      </trkpt>
      <trkpt lat="42.9397" lon="0.8521">
        <ele>1106.13</ele>
        <time>2016-04-10T14:08:34Z</time>
      </trkpt>
      <trkpt lat="42.9398" lon="0.8521">
        <ele>1105.17</ele>
        <time>2016-04-10T14:08:44Z</time>
      </trkpt>
      <trkpt lat="42.9399" lon="0.8521">
        <ele>1104.21</ele>
        <time>2016-04-10T14:08:53Z</time>
      </trkpt>
      <trkpt lat="42.93999" lon="0.85205">
        <ele>1103.25</ele>
        <time>2016-04-10T14:09:04Z</time>
      </trkpt>
      <trkpt lat="42.94013" lon="0.852">
        <ele>1102.29</ele>
        <time>2016-04-10T14:09:18Z</time>
      </trkpt>
      <trkpt lat="42.94027" lon="0.85205">
        <ele>1099.4</ele>
        <time>2016-04-10T14:09:37Z</time>
      </trkpt>
      <trkpt lat="42.94056" lon="0.85223">
        <ele>1094.12</ele>
        <time>2016-04-10T14:10:16Z</time>
      </trkpt>
      <trkpt lat="42.94076" lon="0.85218">
        <ele>1093.16</ele>
        <time>2016-04-10T14:10:35Z</time>
      </trkpt>
      <trkpt lat="42.94099" lon="0.85224">
        <ele>1090.75</ele>
        <time>2016-04-10T14:11:03Z</time>
      </trkpt>
      <trkpt lat="42.94131" lon="0.85235">
        <ele>1090.75</ele>
        <time>2016-04-10T14:11:48Z</time>
      </trkpt>
      <trkpt lat="42.94159" lon="0.8525">
        <ele>1089.79</ele>
        <time>2016-04-10T14:12:10Z</time>
      </trkpt>
      <trkpt lat="42.94181" lon="0.85263">
        <ele>1088.83</ele>
        <time>2016-04-10T14:12:38Z</time>
      </trkpt>
      <trkpt lat="42.94197" lon="0.85292">
        <ele>1089.79</ele>
        <time>2016-04-10T14:13:06Z</time>
      </trkpt>
      <trkpt lat="42.94212" lon="0.85312">
        <ele>1088.83</ele>
        <time>2016-04-10T14:13:26Z</time>
      </trkpt>
      <trkpt lat="42.94229" lon="0.85334">
        <ele>1087.39</ele>
        <time>2016-04-10T14:13:49Z</time>
      </trkpt>
      <trkpt lat="42.94239" lon="0.85358">
        <ele>1089.31</ele>
        <time>2016-04-10T14:14:09Z</time>
      </trkpt>
      <trkpt lat="42.94241" lon="0.85386">
        <ele>1090.75</ele>
        <time>2016-04-10T14:14:33Z</time>
      </trkpt>
      <trkpt lat="42.94243" lon="0.8541">
        <ele>1090.27</ele>
        <time>2016-04-10T14:14:54Z</time>
      </trkpt>
      <trkpt lat="42.94257" lon="0.85426">
        <ele>1087.39</ele>
        <time>2016-04-10T14:15:10Z</time>
      </trkpt>
      <trkpt lat="42.94276" lon="0.85437">
        <ele>1084.5</ele>
        <time>2016-04-10T14:15:33Z</time>
      </trkpt>
      <trkpt lat="42.943" lon="0.8545">
        <ele>1080.18</ele>
        <time>2016-04-10T14:16:02Z</time>
      </trkpt>
      <trkpt lat="42.94318" lon="0.85457">
        <ele>1077.78</ele>
        <time>2016-04-10T14:16:18Z</time>
      </trkpt>
      <trkpt lat="42.94334" lon="0.85461">
        <ele>1077.78</ele>
        <time>2016-04-10T14:16:32Z</time>
      </trkpt>
      <trkpt lat="42.94352" lon="0.85473">
        <ele>1079.22</ele>
        <time>2016-04-10T14:16:53Z</time>
      </trkpt>
      <trkpt lat="42.94365" lon="0.85489">
        <ele>1079.7</ele>
        <time>2016-04-10T14:17:10Z</time>
      </trkpt>
      <trkpt lat="42.94379" lon="0.85495">
        <ele>1080.66</ele>
        <time>2016-04-10T14:17:28Z</time>
      </trkpt>
      <trkpt lat="42.94394" lon="0.85488">
        <ele>1081.14</ele>
        <time>2016-04-10T14:17:41Z</time>
      </trkpt>
      <trkpt lat="42.9441" lon="0.85477">
        <ele>1080.18</ele>
        <time>2016-04-10T14:17:57Z</time>
      </trkpt>
      <trkpt lat="42.94421" lon="0.85468">
        <ele>1079.22</ele>
        <time>2016-04-10T14:18:10Z</time>
      </trkpt>
      <trkpt lat="42.94431" lon="0.85457">
        <ele>1078.26</ele>
        <time>2016-04-10T14:18:23Z</time>
      </trkpt>
      <trkpt lat="42.94441" lon="0.85448">
        <ele>1077.29</ele>
        <time>2016-04-10T14:18:34Z</time>
      </trkpt>
      <trkpt lat="42.9445" lon="0.85441">
        <ele>1076.33</ele>
        <time>2016-04-10T14:18:44Z</time>
      </trkpt>
      <trkpt lat="42.94458" lon="0.85431">
        <ele>1074.41</ele>
        <time>2016-04-10T14:18:53Z</time>
      </trkpt>
      <trkpt lat="42.94467" lon="0.85419">
        <ele>1073.45</ele>
        <time>2016-04-10T14:19:02Z</time>
      </trkpt>
      <trkpt lat="42.94472" lon="0.85408">
        <ele>1072.97</ele>
        <time>2016-04-10T14:19:13Z</time>
      </trkpt>
      <trkpt lat="42.9448" lon="0.8541">
        <ele>1071.53</ele>
        <time>2016-04-10T14:19:21Z</time>
      </trkpt>
      <trkpt lat="42.94488" lon="0.85423">
        <ele>1072.49</ele>
        <time>2016-04-10T14:19:30Z</time>
      </trkpt>
    </trkseg>
  </trk>
</gpx>